Wetterdaten: Mittwoch, 08.10.2014
Datum Zeit Temp. Aussen +5cm Feuchte Auss Luftdruck Regen Sonnenschein Regendauer Solar Windben
08.10.2014 00:00 9,7 C 8,3 C 94 % 1007,4 hPa 0,0 l/m 0 min 0 min 0 W/m 14,6 km/h (3 Bft)
08.10.2014 00:02 9,7 C 8,3 C 94 % 1007,5 hPa 0,0 l/m 0 min 0 min 0 W/m 14,6 km/h (3 Bft)
08.10.2014 00:05 9,7 C 8,3 C 94 % 1007,5 hPa 0,0 l/m 0 min 0 min 0 W/m 12,6 km/h (3 Bft)
08.10.2014 00:07 9,7 C 8,3 C 94 % 1007,5 hPa 0,0 l/m 0 min 0 min 0 W/m 12,6 km/h (3 Bft)
08.10.2014 00:08 9,7 C 8,3 C 94 % 1007,5 hPa 0,0 l/m 0 min 0 min 0 W/m 8,4 km/h (2 Bft)
08.10.2014 00:10 9,6 C 8,3 C 94 % 1007,6 hPa 0,0 l/m 0 min 0 min 0 W/m 10,5 km/h (2 Bft)
08.10.2014 00:12 9,7 C 8,3 C 94 % 1007,6 hPa 0,0 l/m 0 min 0 min 0 W/m 14,6 km/h (3 Bft)
08.10.2014 00:14 9,6 C 8,3 C 94 % 1007,5 hPa 0,0 l/m 0 min 0 min 0 W/m 16,7 km/h (3 Bft)
08.10.2014 00:16 9,6 C 8,3 C 94 % 1007,6 hPa 0,0 l/m 0 min 0 min 0 W/m 18,8 km/h (3 Bft)
08.10.2014 00:18 9,6 C 8,3 C 94 % 1007,6 hPa 0,0 l/m 0 min 0 min 0 W/m 14,6 km/h (3 Bft)
08.10.2014 00:20 9,6 C 8,3 C 94 % 1007,6 hPa 0,0 l/m 0 min 0 min 0 W/m 10,5 km/h (2 Bft)
08.10.2014 00:22 9,6 C 8,3 C 94 % 1007,6 hPa 0,0 l/m 0 min 0 min 0 W/m 14,6 km/h (3 Bft)
08.10.2014 00:24 9,6 C 8,3 C 94 % 1007,6 hPa 0,0 l/m 0 min 0 min 0 W/m 16,7 km/h (3 Bft)
08.10.2014 00:26 9,6 C 8,3 C 94 % 1007,6 hPa 0,0 l/m 0 min 0 min 0 W/m 12,6 km/h (3 Bft)
08.10.2014 00:28 9,6 C 8,3 C 94 % 1007,6 hPa 0,0 l/m 0 min 0 min 0 W/m 12,6 km/h (3 Bft)
08.10.2014 00:30 9,6 C 8,3 C 94 % 1007,6 hPa 0,0 l/m 0 min 0 min 0 W/m 18,8 km/h (3 Bft)
08.10.2014 00:32 9,6 C 8,3 C 94 % 1007,6 hPa 0,0 l/m 0 min 0 min 0 W/m 14,6 km/h (3 Bft)
08.10.2014 00:34 9,6 C 8,3 C 94 % 1007,7 hPa 0,0 l/m 0 min 0 min 0 W/m 16,7 km/h (3 Bft)
08.10.2014 00:36 9,6 C 8,3 C 94 % 1007,7 hPa 0,0 l/m 0 min 0 min 0 W/m 14,6 km/h (3 Bft)
08.10.2014 00:38 9,6 C 8,3 C 94 % 1007,8 hPa 0,0 l/m 0 min 0 min 0 W/m 12,6 km/h (3 Bft)
08.10.2014 00:40 9,6 C 8,3 C 94 % 1007,8 hPa 0,0 l/m 0 min 0 min 0 W/m 14,6 km/h (3 Bft)
08.10.2014 00:42 9,6 C 8,3 C 94 % 1007,9 hPa 0,0 l/m 0 min 0 min 0 W/m 16,7 km/h (3 Bft)
08.10.2014 00:44 9,6 C 8,3 C 94 % 1008,0 hPa 0,0 l/m 0 min 0 min 0 W/m 12,6 km/h (3 Bft)
08.10.2014 00:46 9,6 C 8,3 C 94 % 1008,1 hPa 0,0 l/m 0 min 0 min 0 W/m 10,5 km/h (2 Bft)
08.10.2014 00:48 9,6 C 8,3 C 94 % 1008,0 hPa 0,0 l/m 0 min 0 min 0 W/m 10,5 km/h (2 Bft)
08.10.2014 00:50 9,6 C 8,3 C 94 % 1008,1 hPa 0,0 l/m 0 min 0 min 0 W/m 14,6 km/h (3 Bft)
08.10.2014 00:52 9,6 C 8,3 C 94 % 1008,1 hPa 0,0 l/m 0 min 0 min 0 W/m 8,4 km/h (2 Bft)
08.10.2014 00:54 9,6 C 8,3 C 94 % 1008,1 hPa 0,0 l/m 0 min 0 min 0 W/m 8,4 km/h (2 Bft)
08.10.2014 00:56 9,6 C 7,8 C 94 % 1008,2 hPa 0,0 l/m 0 min 0 min 0 W/m 10,5 km/h (2 Bft)
08.10.2014 00:58 9,6 C 7,8 C 94 % 1008,2 hPa 0,0 l/m 0 min 0 min 0 W/m 8,4 km/h (2 Bft)
08.10.2014 01:00 9,6 C 7,8 C 94 % 1008,3 hPa 0,0 l/m 0 min 0 min 0 W/m 14,6 km/h (3 Bft)
08.10.2014 01:02 9,5 C 7,8 C 94 % 1008,3 hPa 0,0 l/m 0 min 0 min 0 W/m 16,7 km/h (3 Bft)
08.10.2014 01:04 9,5 C 7,8 C 94 % 1008,3 hPa 0,0 l/m 0 min 0 min 0 W/m 10,5 km/h (2 Bft)
08.10.2014 01:06 9,5 C 7,8 C 94 % 1008,3 hPa 0,0 l/m 0 min 0 min 0 W/m 10,5 km/h (2 Bft)
08.10.2014 01:08 9,4 C 7,8 C 94 % 1008,4 hPa 0,0 l/m 0 min 0 min 0 W/m 12,6 km/h (3 Bft)
08.10.2014 01:10 9,4 C 7,8 C 94 % 1008,4 hPa 0,0 l/m 0 min 0 min 0 W/m 12,6 km/h (3 Bft)
08.10.2014 01:12 9,4 C 7,8 C 94 % 1008,4 hPa 0,0 l/m 0 min 0 min 0 W/m 10,5 km/h (2 Bft)
08.10.2014 01:14 9,4 C 7,8 C 94 % 1008,4 hPa 0,0 l/m 0 min 0 min 0 W/m 12,6 km/h (3 Bft)
08.10.2014 01:16 9,4 C 7,8 C 94 % 1008,5 hPa 0,0 l/m 0 min 0 min 0 W/m 8,4 km/h (2 Bft)
08.10.2014 01:18 9,4 C 7,8 C 94 % 1008,6 hPa 0,0 l/m 0 min 0 min 0 W/m 8,4 km/h (2 Bft)
08.10.2014 01:20 9,3 C 7,8 C 94 % 1008,6 hPa 0,0 l/m 0 min 0 min 0 W/m 10,5 km/h (2 Bft)
08.10.2014 01:22 9,3 C 7,8 C 94 % 1008,6 hPa 0,0 l/m 0 min 0 min 0 W/m 10,5 km/h (2 Bft)
08.10.2014 01:24 9,3 C 7,8 C 94 % 1008,6 hPa 0,0 l/m 0 min 0 min 0 W/m 10,5 km/h (2 Bft)
08.10.2014 01:26 9,3 C 7,8 C 94 % 1008,6 hPa 0,0 l/m 0 min 0 min 0 W/m 8,4 km/h (2 Bft)
08.10.2014 01:28 9,3 C 7,8 C 94 % 1008,6 hPa 0,0 l/m 0 min 0 min 0 W/m 10,5 km/h (2 Bft)
08.10.2014 01:30 9,2 C 7,8 C 94 % 1008,6 hPa 0,0 l/m 0 min 0 min 0 W/m 12,6 km/h (3 Bft)
08.10.2014 01:32 9,2 C 7,8 C 94 % 1008,7 hPa 0,0 l/m 0 min 0 min 0 W/m 10,5 km/h (2 Bft)
08.10.2014 01:34 9,2 C 7,8 C 94 % 1008,7 hPa 0,0 l/m 0 min 0 min 0 W/m 18,8 km/h (3 Bft)
08.10.2014 01:36 9,2 C 7,8 C 94 % 1008,7 hPa 0,0 l/m 0 min 0 min 0 W/m 14,6 km/h (3 Bft)
08.10.2014 01:38 9,2 C 7,8 C 94 % 1008,7 hPa 0,0 l/m 0 min 0 min 0 W/m 10,5 km/h (2 Bft)
08.10.2014 01:40 9,2 C 7,8 C 94 % 1008,7 hPa 0,0 l/m 0 min 0 min 0 W/m 14,6 km/h (3 Bft)
08.10.2014 01:42 9,2 C 7,8 C 94 % 1008,7 hPa 0,0 l/m 0 min 0 min 0 W/m 14,6 km/h (3 Bft)
08.10.2014 01:44 9,1 C 7,8 C 94 % 1008,7 hPa 0,0 l/m 0 min 0 min 0 W/m 10,5 km/h (2 Bft)
08.10.2014 01:46 9,1 C 7,8 C 94 % 1008,7 hPa 0,0 l/m 0 min 0 min 0 W/m 14,6 km/h (3 Bft)
08.10.2014 01:48 9,1 C 7,8 C 94 % 1008,7 hPa 0,0 l/m 0 min 0 min 0 W/m 16,7 km/h (3 Bft)
08.10.2014 01:50 9,1 C 7,8 C 94 % 1008,7 hPa 0,0 l/m 0 min 0 min 0 W/m 12,6 km/h (3 Bft)
08.10.2014 01:52 9,1 C 7,8 C 94 % 1008,7 hPa 0,0 l/m 0 min 0 min 0 W/m 10,5 km/h (2 Bft)
08.10.2014 01:54 9,1 C 7,8 C 94 % 1008,7 hPa 0,0 l/m 0 min 0 min 0 W/m 8,4 km/h (2 Bft)
08.10.2014 01:56 9,1 C 7,8 C 94 % 1008,7 hPa 0,0 l/m 0 min 0 min 0 W/m 12,6 km/h (3 Bft)
08.10.2014 01:58 9,1 C 7,8 C 95 % 1008,7 hPa 0,0 l/m 0 min 0 min 0 W/m 12,6 km/h (3 Bft)
08.10.2014 02:00 9,1 C 7,8 C 95 % 1008,7 hPa 0,0 l/m 0 min 0 min 0 W/m 14,6 km/h (3 Bft)
08.10.2014 02:02 9,1 C 7,8 C 95 % 1008,7 hPa 0,0 l/m 0 min 0 min 0 W/m 14,6 km/h (3 Bft)
08.10.2014 02:04 9,1 C 7,8 C 95 % 1008,7 hPa 0,0 l/m 0 min 0 min 0 W/m 10,5 km/h (2 Bft)
08.10.2014 02:06 9,1 C 7,8 C 95 % 1008,7 hPa 0,0 l/m 0 min 0 min 0 W/m 10,5 km/h (2 Bft)
08.10.2014 02:08 9,1 C 7,8 C 95 % 1008,6 hPa 0,0 l/m 0 min 0 min 0 W/m 14,6 km/h (3 Bft)
08.10.2014 02:10 9,1 C 7,8 C 95 % 1008,7 hPa 0,0 l/m 0 min 0 min 0 W/m 10,5 km/h (2 Bft)
08.10.2014 02:12 9,1 C 7,8 C 95 % 1008,7 hPa 0,0 l/m 0 min 0 min 0 W/m 12,6 km/h (3 Bft)
08.10.2014 02:14 9,1 C 7,8 C 95 % 1008,7 hPa 0,0 l/m 0 min 0 min 0 W/m 12,6 km/h (3 Bft)
08.10.2014 02:16 9,1 C 7,8 C 95 % 1008,7 hPa 0,0 l/m 0 min 0 min 0 W/m 14,6 km/h (3 Bft)
08.10.2014 02:18 9,1 C 7,8 C 95 % 1008,7 hPa 0,0 l/m 0 min 0 min 0 W/m 10,5 km/h (2 Bft)
08.10.2014 02:20 9,1 C 7,8 C 95 % 1008,8 hPa 0,0 l/m 0 min 0 min 0 W/m 14,6 km/h (3 Bft)
08.10.2014 02:22 9,1 C 7,8 C 95 % 1008,7 hPa 0,0 l/m 0 min 0 min 0 W/m 16,7 km/h (3 Bft)
08.10.2014 02:24 9,1 C 7,8 C 95 % 1008,7 hPa 0,0 l/m 0 min 0 min 0 W/m 14,6 km/h (3 Bft)
08.10.2014 02:26 9,1 C 7,8 C 95 % 1008,7 hPa 0,0 l/m 0 min 0 min 0 W/m 14,6 km/h (3 Bft)
08.10.2014 02:28 9,1 C 7,8 C 95 % 1008,8 hPa 0,0 l/m 0 min 0 min 0 W/m 12,6 km/h (3 Bft)
08.10.2014 02:30 9,1 C 7,8 C 95 % 1008,8 hPa 0,0 l/m 0 min 0 min 0 W/m 14,6 km/h (3 Bft)
08.10.2014 02:32 9,1 C 7,8 C 95 % 1008,8 hPa 0,0 l/m 0 min 0 min 0 W/m 14,6 km/h (3 Bft)
08.10.2014 02:34 9,2 C 7,8 C 95 % 1008,8 hPa 0,0 l/m 0 min 0 min 0 W/m 16,7 km/h (3 Bft)
08.10.2014 02:36 9,1 C 7,8 C 95 % 1008,8 hPa 0,0 l/m 0 min 0 min 0 W/m 14,6 km/h (3 Bft)
08.10.2014 02:38 9,1 C 7,8 C 95 % 1008,8 hPa 0,0 l/m 0 min 0 min 0 W/m 12,6 km/h (3 Bft)
08.10.2014 02:40 9,2 C 7,8 C 95 % 1008,7 hPa 0,0 l/m 0 min 0 min 0 W/m 12,6 km/h (3 Bft)
08.10.2014 02:42 9,2 C 7,8 C 95 % 1008,7 hPa 0,0 l/m 0 min 0 min 0 W/m 12,6 km/h (3 Bft)
08.10.2014 02:44 9,2 C 7,8 C 95 % 1008,7 hPa 0,0 l/m 0 min 0 min 0 W/m 12,6 km/h (3 Bft)
08.10.2014 02:46 9,2 C 7,8 C 95 % 1008,7 hPa 0,0 l/m 0 min 0 min 0 W/m 14,6 km/h (3 Bft)
08.10.2014 02:48 9,2 C 7,8 C 95 % 1008,7 hPa 0,0 l/m 0 min 0 min 0 W/m 14,6 km/h (3 Bft)
08.10.2014 02:50 9,2 C 7,8 C 95 % 1008,7 hPa 0,0 l/m 0 min 0 min 0 W/m 14,6 km/h (3 Bft)
08.10.2014 02:52 9,2 C 7,8 C 95 % 1008,7 hPa 0,0 l/m 0 min 0 min 0 W/m 14,6 km/h (3 Bft)
08.10.2014 02:54 9,2 C 7,8 C 95 % 1008,7 hPa 0,0 l/m 0 min 0 min 0 W/m 14,6 km/h (3 Bft)
08.10.2014 02:56 9,2 C 7,8 C 95 % 1008,8 hPa 0,0 l/m 0 min 0 min 0 W/m 14,6 km/h (3 Bft)
08.10.2014 02:58 9,2 C 7,8 C 95 % 1008,8 hPa 0,0 l/m 0 min 0 min 0 W/m 12,6 km/h (3 Bft)
08.10.2014 03:00 9,2 C 7,8 C 95 % 1008,8 hPa 0,0 l/m 0 min 0 min 0 W/m 14,6 km/h (3 Bft)
08.10.2014 03:02 9,2 C 7,8 C 95 % 1008,8 hPa 0,0 l/m 0 min 0 min 0 W/m 10,5 km/h (2 Bft)
08.10.2014 03:04 9,2 C 7,8 C 95 % 1008,9 hPa 0,0 l/m 0 min 0 min 0 W/m 14,6 km/h (3 Bft)
08.10.2014 03:06 9,2 C 8,3 C 95 % 1008,8 hPa 0,0 l/m 0 min 0 min 0 W/m 14,6 km/h (3 Bft)
08.10.2014 03:08 9,2 C 8,3 C 95 % 1008,8 hPa 0,0 l/m 0 min 0 min 0 W/m 14,6 km/h (3 Bft)
08.10.2014 03:10 9,2 C 8,3 C 95 % 1008,9 hPa 0,0 l/m 0 min 0 min 0 W/m 14,6 km/h (3 Bft)
08.10.2014 03:12 9,2 C 8,3 C 95 % 1008,9 hPa 0,0 l/m 0 min 0 min 0 W/m 12,6 km/h (3 Bft)
08.10.2014 03:14 9,2 C 7,8 C 95 % 1008,8 hPa 0,0 l/m 0 min 0 min 0 W/m 12,6 km/h (3 Bft)
08.10.2014 03:16 9,2 C 7,8 C 95 % 1008,8 hPa 0,0 l/m 0 min 0 min 0 W/m 14,6 km/h (3 Bft)
08.10.2014 03:18 9,2 C 7,8 C 95 % 1008,8 hPa 0,0 l/m 0 min 0 min 0 W/m 10,5 km/h (2 Bft)
08.10.2014 03:20 9,2 C 7,8 C 95 % 1008,8 hPa 0,0 l/m 0 min 0 min 0 W/m 12,6 km/h (3 Bft)
08.10.2014 03:22 9,2 C 7,8 C 95 % 1008,8 hPa 0,0 l/m 0 min 0 min 0 W/m 14,6 km/h (3 Bft)
08.10.2014 03:24 9,2 C 7,8 C 95 % 1008,8 hPa 0,0 l/m 0 min 0 min 0 W/m 12,6 km/h (3 Bft)
08.10.2014 03:26 9,2 C 8,3 C 95 % 1008,8 hPa 0,0 l/m 0 min 0 min 0 W/m 16,7 km/h (3 Bft)
08.10.2014 03:28 9,2 C 8,3 C 95 % 1008,8 hPa 0,0 l/m 0 min 0 min 0 W/m 12,6 km/h (3 Bft)
08.10.2014 03:30 9,2 C 8,3 C 95 % 1008,8 hPa 0,0 l/m 0 min 0 min 0 W/m 12,6 km/h (3 Bft)
08.10.2014 03:32 9,2 C 7,8 C 95 % 1008,8 hPa 0,0 l/m 0 min 0 min 0 W/m 14,6 km/h (3 Bft)
08.10.2014 03:34 9,2 C 7,8 C 95 % 1008,8 hPa 0,0 l/m 0 min 0 min 0 W/m 12,6 km/h (3 Bft)
08.10.2014 03:36 9,2 C 7,8 C 95 % 1008,8 hPa 0,0 l/m 0 min 0 min 0 W/m 10,5 km/h (2 Bft)
08.10.2014 03:38 9,2 C 7,8 C 95 % 1008,9 hPa 0,0 l/m 0 min 0 min 0 W/m 12,6 km/h (3 Bft)
08.10.2014 03:40 9,2 C 7,8 C 95 % 1008,8 hPa 0,0 l/m 0 min 0 min 0 W/m 8,4 km/h (2 Bft)
08.10.2014 03:42 9,2 C 7,8 C 95 % 1008,8 hPa 0,0 l/m 0 min 0 min 0 W/m 14,6 km/h (3 Bft)
08.10.2014 03:44 9,2 C 7,8 C 95 % 1008,8 hPa 0,0 l/m 0 min 0 min 0 W/m 8,4 km/h (2 Bft)
08.10.2014 03:46 9,2 C 7,8 C 95 % 1008,7 hPa 0,0 l/m 0 min 0 min 0 W/m 12,6 km/h (3 Bft)
08.10.2014 03:48 9,2 C 7,8 C 95 % 1008,7 hPa 0,0 l/m 0 min 0 min 0 W/m 14,6 km/h (3 Bft)
08.10.2014 03:50 9,2 C 7,8 C 95 % 1008,7 hPa 0,0 l/m 0 min 0 min 0 W/m 12,6 km/h (3 Bft)
08.10.2014 03:52 9,2 C 7,8 C 95 % 1008,7 hPa 0,0 l/m 0 min 0 min 0 W/m 16,7 km/h (3 Bft)
08.10.2014 03:54 9,2 C 7,8 C 95 % 1008,8 hPa 0,0 l/m 0 min 0 min 0 W/m 10,5 km/h (2 Bft)
08.10.2014 03:56 9,2 C 7,8 C 95 % 1008,8 hPa 0,0 l/m 0 min 0 min 0 W/m 10,5 km/h (2 Bft)
08.10.2014 03:58 9,2 C 7,8 C 95 % 1008,8 hPa 0,0 l/m 0 min 0 min 0 W/m 12,6 km/h (3 Bft)
08.10.2014 04:00 9,1 C 7,8 C 95 % 1008,8 hPa 0,0 l/m 0 min 0 min 0 W/m 14,6 km/h (3 Bft)
08.10.2014 04:02 9,2 C 7,8 C 95 % 1008,7 hPa 0,0 l/m 0 min 0 min 0 W/m 12,6 km/h (3 Bft)
08.10.2014 04:04 9,1 C 7,8 C 95 % 1008,7 hPa 0,0 l/m 0 min 0 min 0 W/m 14,6 km/h (3 Bft)
08.10.2014 04:06 9,1 C 7,8 C 95 % 1008,8 hPa 0,0 l/m 0 min 0 min 0 W/m 10,5 km/h (2 Bft)
08.10.2014 04:08 9,1 C 7,8 C 95 % 1008,8 hPa 0,0 l/m 0 min 0 min 0 W/m 10,5 km/h (2 Bft)
08.10.2014 04:10 9,1 C 7,8 C 95 % 1008,8 hPa 0,0 l/m 0 min 0 min 0 W/m 14,6 km/h (3 Bft)
08.10.2014 04:12 9,1 C 7,8 C 95 % 1008,8 hPa 0,0 l/m 0 min 0 min 0 W/m 14,6 km/h (3 Bft)
08.10.2014 04:14 9,1 C 7,8 C 95 % 1008,7 hPa 0,0 l/m 0 min 0 min 0 W/m 10,5 km/h (2 Bft)
08.10.2014 04:16 9,1 C 7,8 C 95 % 1008,7 hPa 0,0 l/m 0 min 0 min 0 W/m 12,6 km/h (3 Bft)
08.10.2014 04:18 9,1 C 7,8 C 95 % 1008,7 hPa 0,0 l/m 0 min 0 min 0 W/m 10,5 km/h (2 Bft)
08.10.2014 04:20 9,1 C 7,8 C 95 % 1008,6 hPa 0,0 l/m 0 min 0 min 0 W/m 12,6 km/h (3 Bft)
08.10.2014 04:22 9,1 C 7,8 C 95 % 1008,6 hPa 0,0 l/m 0 min 0 min 0 W/m 10,5 km/h (2 Bft)
08.10.2014 04:24 9,1 C 7,8 C 95 % 1008,6 hPa 0,0 l/m 0 min 0 min 0 W/m 8,4 km/h (2 Bft)
08.10.2014 04:26 9,1 C 7,8 C 95 % 1008,5 hPa 0,0 l/m 0 min 0 min 0 W/m 8,4 km/h (2 Bft)
08.10.2014 04:28 9,1 C 7,8 C 95 % 1008,6 hPa 0,0 l/m 0 min 0 min 0 W/m 10,5 km/h (2 Bft)
08.10.2014 04:30 9,1 C 7,8 C 95 % 1008,6 hPa 0,0 l/m 0 min 0 min 0 W/m 12,6 km/h (3 Bft)
08.10.2014 04:32 9,1 C 7,8 C 95 % 1008,6 hPa 0,0 l/m 0 min 0 min 0 W/m 12,6 km/h (3 Bft)
08.10.2014 04:34 9,1 C 7,8 C 95 % 1008,6 hPa 0,0 l/m 0 min 0 min 0 W/m 10,5 km/h (2 Bft)
08.10.2014 04:36 9,1 C 7,8 C 95 % 1008,5 hPa 0,0 l/m 0 min 0 min 0 W/m 14,6 km/h (3 Bft)
08.10.2014 04:38 9,1 C 7,8 C 95 % 1008,6 hPa 0,0 l/m 0 min 0 min 0 W/m 8,4 km/h (2 Bft)
08.10.2014 04:40 9,1 C 7,8 C 95 % 1008,5 hPa 0,0 l/m 0 min 0 min 0 W/m 12,6 km/h (3 Bft)
08.10.2014 04:42 9,1 C 7,8 C 95 % 1008,6 hPa 0,0 l/m 0 min 0 min 0 W/m 10,5 km/h (2 Bft)
08.10.2014 04:44 9,1 C 7,8 C 95 % 1008,6 hPa 0,0 l/m 0 min 0 min 0 W/m 8,4 km/h (2 Bft)
08.10.2014 04:46 9,1 C 7,8 C 95 % 1008,5 hPa 0,0 l/m 0 min 0 min 0 W/m 8,4 km/h (2 Bft)
08.10.2014 04:48 9,1 C 7,8 C 95 % 1008,5 hPa 0,0 l/m 0 min 0 min 0 W/m 12,6 km/h (3 Bft)
08.10.2014 04:50 9,1 C 7,8 C 95 % 1008,5 hPa 0,0 l/m 0 min 0 min 0 W/m 12,6 km/h (3 Bft)
08.10.2014 04:52 9,1 C 7,8 C 95 % 1008,5 hPa 0,0 l/m 0 min 0 min 0 W/m 12,6 km/h (3 Bft)
08.10.2014 04:54 9,1 C 7,8 C 95 % 1008,5 hPa 0,0 l/m 0 min 0 min 0 W/m 14,6 km/h (3 Bft)
08.10.2014 04:56 9,1 C 7,8 C 95 % 1008,5 hPa 0,0 l/m 0 min 0 min 0 W/m 8,4 km/h (2 Bft)
08.10.2014 04:58 9,1 C 7,8 C 95 % 1008,5 hPa 0,0 l/m 0 min 0 min 0 W/m 10,5 km/h (2 Bft)
08.10.2014 05:00 9,1 C 7,8 C 95 % 1008,6 hPa 0,0 l/m 0 min 0 min 0 W/m 14,6 km/h (3 Bft)
08.10.2014 05:02 9,1 C 7,8 C 95 % 1008,5 hPa 0,0 l/m 0 min 0 min 0 W/m 16,7 km/h (3 Bft)
08.10.2014 05:04 9,1 C 8,3 C 95 % 1008,5 hPa 0,0 l/m 0 min 0 min 0 W/m 12,6 km/h (3 Bft)
08.10.2014 05:06 9,1 C 8,3 C 95 % 1008,5 hPa 0,0 l/m 0 min 0 min 0 W/m 12,6 km/h (3 Bft)
08.10.2014 05:08 9,1 C 8,3 C 95 % 1008,5 hPa 0,0 l/m 0 min 0 min 0 W/m 10,5 km/h (2 Bft)
08.10.2014 05:10 9,1 C 8,3 C 95 % 1008,5 hPa 0,0 l/m 0 min 0 min 0 W/m 10,5 km/h (2 Bft)
08.10.2014 05:12 9,1 C 8,3 C 95 % 1008,4 hPa 0,0 l/m 0 min 0 min 0 W/m 12,6 km/h (3 Bft)
08.10.2014 05:14 9,1 C 8,3 C 95 % 1008,5 hPa 0,0 l/m 0 min 0 min 0 W/m 12,6 km/h (3 Bft)
08.10.2014 05:16 9,1 C 8,3 C 95 % 1008,4 hPa 0,0 l/m 0 min 0 min 0 W/m 8,4 km/h (2 Bft)
08.10.2014 05:18 9,2 C 8,3 C 95 % 1008,4 hPa 0,0 l/m 0 min 0 min 0 W/m 10,5 km/h (2 Bft)
08.10.2014 05:20 9,2 C 8,3 C 95 % 1008,4 hPa 0,0 l/m 0 min 0 min 0 W/m 10,5 km/h (2 Bft)
08.10.2014 05:22 9,2 C 8,3 C 95 % 1008,4 hPa 0,0 l/m 0 min 0 min 0 W/m 14,6 km/h (3 Bft)
08.10.2014 05:24 9,2 C 8,3 C 95 % 1008,4 hPa 0,0 l/m 0 min 0 min 0 W/m 12,6 km/h (3 Bft)
08.10.2014 05:26 9,2 C 8,3 C 95 % 1008,4 hPa 0,0 l/m 0 min 0 min 0 W/m 10,5 km/h (2 Bft)
08.10.2014 05:28 9,2 C 8,3 C 95 % 1008,3 hPa 0,0 l/m 0 min 0 min 0 W/m 14,6 km/h (3 Bft)
08.10.2014 05:30 9,2 C 8,3 C 95 % 1008,3 hPa 0,0 l/m 0 min 0 min 0 W/m 14,6 km/h (3 Bft)
08.10.2014 05:32 9,2 C 8,3 C 95 % 1008,3 hPa 0,0 l/m 0 min 0 min 0 W/m 14,6 km/h (3 Bft)
08.10.2014 05:34 9,2 C 8,3 C 95 % 1008,2 hPa 0,0 l/m 0 min 0 min 0 W/m 10,5 km/h (2 Bft)
08.10.2014 05:36 9,2 C 8,3 C 95 % 1008,1 hPa 0,0 l/m 0 min 0 min 0 W/m 12,6 km/h (3 Bft)
08.10.2014 05:38 9,2 C 8,3 C 95 % 1008,1 hPa 0,0 l/m 0 min 0 min 0 W/m 10,5 km/h (2 Bft)
08.10.2014 05:40 9,2 C 7,8 C 95 % 1008,1 hPa 0,0 l/m 0 min 0 min 0 W/m 10,5 km/h (2 Bft)
08.10.2014 05:42 9,2 C 8,3 C 95 % 1008,1 hPa 0,0 l/m 0 min 0 min 0 W/m 10,5 km/h (2 Bft)
08.10.2014 05:44 9,2 C 8,3 C 95 % 1008,1 hPa 0,0 l/m 0 min 0 min 0 W/m 12,6 km/h (3 Bft)
08.10.2014 05:46 9,2 C 8,3 C 95 % 1008,1 hPa 0,0 l/m 0 min 0 min 0 W/m 8,4 km/h (2 Bft)
08.10.2014 05:48 9,2 C 8,3 C 95 % 1008,1 hPa 0,0 l/m 0 min 0 min 0 W/m 14,6 km/h (3 Bft)
08.10.2014 05:50 9,2 C 8,3 C 95 % 1008,1 hPa 0,0 l/m 0 min 0 min 0 W/m 10,5 km/h (2 Bft)
08.10.2014 05:52 9,2 C 8,3 C 95 % 1008,1 hPa 0,0 l/m 0 min 0 min 0 W/m 10,5 km/h (2 Bft)
08.10.2014 05:54 9,3 C 8,3 C 95 % 1008,1 hPa 0,0 l/m 0 min 0 min 0 W/m 12,6 km/h (3 Bft)
08.10.2014 05:56 9,3 C 8,3 C 95 % 1008,0 hPa 0,0 l/m 0 min 0 min 0 W/m 10,5 km/h (2 Bft)
08.10.2014 05:58 9,3 C 8,3 C 95 % 1008,0 hPa 0,0 l/m 0 min 0 min 0 W/m 10,5 km/h (2 Bft)
08.10.2014 06:00 9,3 C 8,3 C 95 % 1008,0 hPa 0,0 l/m 0 min 0 min 0 W/m 16,7 km/h (3 Bft)
08.10.2014 06:02 9,3 C 8,3 C 95 % 1007,9 hPa 0,0 l/m 0 min 0 min 0 W/m 10,5 km/h (2 Bft)
08.10.2014 06:05 9,3 C 8,3 C 95 % 1007,9 hPa 0,0 l/m 0 min 0 min 0 W/m 12,6 km/h (3 Bft)
08.10.2014 06:08 9,3 C 8,3 C 95 % 1007,9 hPa 0,0 l/m 0 min 0 min 0 W/m 14,6 km/h (3 Bft)
08.10.2014 06:10 9,3 C 8,3 C 95 % 1007,9 hPa 0,0 l/m 0 min 0 min 0 W/m 14,6 km/h (3 Bft)
08.10.2014 06:12 9,3 C 8,3 C 95 % 1007,9 hPa 0,0 l/m 0 min 0 min 0 W/m 14,6 km/h (3 Bft)
08.10.2014 06:14 9,3 C 8,3 C 95 % 1007,9 hPa 0,0 l/m 0 min 0 min 0 W/m 12,6 km/h (3 Bft)
08.10.2014 06:16 9,4 C 8,3 C 95 % 1007,8 hPa 0,0 l/m 0 min 0 min 0 W/m 16,7 km/h (3 Bft)
08.10.2014 06:18 9,4 C 8,3 C 94 % 1007,8 hPa 0,0 l/m 0 min 0 min 0 W/m 18,8 km/h (3 Bft)
08.10.2014 06:20 9,4 C 8,3 C 94 % 1007,8 hPa 0,0 l/m 0 min 0 min 0 W/m 14,6 km/h (3 Bft)
08.10.2014 06:22 9,4 C 8,3 C 94 % 1007,8 hPa 0,0 l/m 0 min 0 min 0 W/m 14,6 km/h (3 Bft)
08.10.2014 06:24 9,4 C 8,3 C 94 % 1007,8 hPa 0,0 l/m 0 min 0 min 0 W/m 14,6 km/h (3 Bft)
08.10.2014 06:26 9,4 C 8,3 C 94 % 1007,7 hPa 0,0 l/m 0 min 0 min 0 W/m 14,6 km/h (3 Bft)
08.10.2014 06:28 9,4 C 8,9 C 94 % 1007,8 hPa 0,0 l/m 0 min 0 min 0 W/m 16,7 km/h (3 Bft)
08.10.2014 06:30 9,5 C 8,9 C 94 % 1007,7 hPa 0,0 l/m 0 min 0 min 0 W/m 14,6 km/h (3 Bft)
08.10.2014 06:32 9,5 C 8,9 C 94 % 1007,8 hPa 0,0 l/m 0 min 0 min 0 W/m 14,6 km/h (3 Bft)
08.10.2014 06:34 9,5 C 8,9 C 94 % 1007,8 hPa 0,0 l/m 0 min 0 min 0 W/m 12,6 km/h (3 Bft)
08.10.2014 06:36 9,6 C 8,9 C 94 % 1007,8 hPa 0,0 l/m 0 min 0 min 0 W/m 16,7 km/h (3 Bft)
08.10.2014 06:38 9,6 C 8,9 C 95 % 1007,8 hPa 0,0 l/m 0 min 0 min 0 W/m 18,8 km/h (3 Bft)
08.10.2014 06:40 9,6 C 8,9 C 95 % 1007,7 hPa 0,0 l/m 0 min 0 min 0 W/m 12,6 km/h (3 Bft)
08.10.2014 06:42 9,6 C 8,9 C 95 % 1007,6 hPa 0,0 l/m 0 min 0 min 0 W/m 12,6 km/h (3 Bft)
08.10.2014 06:44 9,6 C 8,9 C 95 % 1007,6 hPa 0,0 l/m 0 min 0 min 0 W/m 12,6 km/h (3 Bft)
08.10.2014 06:46 9,7 C 8,9 C 95 % 1007,6 hPa 0,0 l/m 0 min 0 min 0 W/m 12,6 km/h (3 Bft)
08.10.2014 06:48 9,7 C 8,9 C 95 % 1007,6 hPa 0,0 l/m 0 min 0 min 0 W/m 14,6 km/h (3 Bft)
08.10.2014 06:50 9,7 C 8,9 C 95 % 1007,6 hPa 0,0 l/m 0 min 0 min 0 W/m 16,7 km/h (3 Bft)
08.10.2014 06:52 9,7 C 8,9 C 94 % 1007,6 hPa 0,0 l/m 0 min 0 min 0 W/m 12,6 km/h (3 Bft)
08.10.2014 06:54 9,7 C 8,9 C 94 % 1007,6 hPa 0,0 l/m 0 min 0 min 0 W/m 12,6 km/h (3 Bft)
08.10.2014 06:56 9,7 C 8,9 C 94 % 1007,5 hPa 0,0 l/m 0 min 0 min 0 W/m 12,6 km/h (3 Bft)
08.10.2014 06:58 9,7 C 8,9 C 94 % 1007,5 hPa 0,0 l/m 0 min 0 min 0 W/m 8,4 km/h (2 Bft)
08.10.2014 07:00 9,7 C 8,9 C 94 % 1007,5 hPa 0,0 l/m 0 min 0 min 0 W/m 12,6 km/h (3 Bft)
08.10.2014 07:02 9,7 C 8,9 C 94 % 1007,4 hPa 0,0 l/m 0 min 0 min 0 W/m 8,4 km/h (2 Bft)
08.10.2014 07:04 9,8 C 8,9 C 94 % 1007,5 hPa 0,0 l/m 0 min 0 min 0 W/m 8,4 km/h (2 Bft)
08.10.2014 07:06 9,8 C 8,9 C 94 % 1007,5 hPa 0,0 l/m 0 min 0 min 0 W/m 12,6 km/h (3 Bft)
08.10.2014 07:08 9,8 C 8,9 C 94 % 1007,5 hPa 0,0 l/m 0 min 0 min 0 W/m 14,6 km/h (3 Bft)
08.10.2014 07:10 9,8 C 8,9 C 94 % 1007,4 hPa 0,0 l/m 0 min 0 min 0 W/m 10,5 km/h (2 Bft)
08.10.2014 07:12 9,8 C 8,9 C 94 % 1007,3 hPa 0,0 l/m 0 min 0 min 0 W/m 12,6 km/h (3 Bft)
08.10.2014 07:14 9,8 C 8,9 C 94 % 1007,3 hPa 0,0 l/m 0 min 0 min 0 W/m 10,5 km/h (2 Bft)
08.10.2014 07:16 9,8 C 8,9 C 94 % 1007,2 hPa 0,0 l/m 0 min 0 min 0 W/m 8,4 km/h (2 Bft)
08.10.2014 07:18 9,8 C 8,9 C 94 % 1007,2 hPa 0,0 l/m 0 min 0 min 0 W/m 10,5 km/h (2 Bft)
08.10.2014 07:20 9,9 C 8,9 C 94 % 1007,2 hPa 0,0 l/m 0 min 0 min 0 W/m 12,6 km/h (3 Bft)
08.10.2014 07:22 9,9 C 8,9 C 94 % 1007,2 hPa 0,0 l/m 0 min 0 min 0 W/m 12,6 km/h (3 Bft)
08.10.2014 07:24 9,9 C 8,9 C 94 % 1007,2 hPa 0,0 l/m 0 min 0 min 0 W/m 8,4 km/h (2 Bft)
08.10.2014 07:26 9,9 C 8,9 C 94 % 1007,2 hPa 0,0 l/m 0 min 0 min 0 W/m 10,5 km/h (2 Bft)
08.10.2014 07:28 9,9 C 8,9 C 94 % 1007,2 hPa 0,0 l/m 0 min 0 min 0 W/m 12,6 km/h (3 Bft)
08.10.2014 07:30 9,9 C 8,9 C 94 % 1007,2 hPa 0,0 l/m 0 min 0 min 0 W/m 14,6 km/h (3 Bft)
08.10.2014 07:32 9,9 C 8,9 C 94 % 1007,2 hPa 0,0 l/m 0 min 0 min 0 W/m 12,6 km/h (3 Bft)
08.10.2014 07:34 9,9 C 8,9 C 94 % 1007,2 hPa 0,0 l/m 0 min 0 min 0 W/m 12,6 km/h (3 Bft)
08.10.2014 07:36 9,9 C 8,9 C 94 % 1007,2 hPa 0,0 l/m 0 min 0 min 0 W/m 12,6 km/h (3 Bft)
08.10.2014 07:38 9,9 C 8,9 C 94 % 1007,1 hPa 0,0 l/m 0 min 0 min 0 W/m 14,6 km/h (3 Bft)
08.10.2014 07:40 9,9 C 8,9 C 94 % 1007,2 hPa 0,0 l/m 0 min 0 min 0 W/m 12,6 km/h (3 Bft)
08.10.2014 07:42 9,9 C 8,9 C 94 % 1007,2 hPa 0,0 l/m 0 min 0 min 0 W/m 12,6 km/h (3 Bft)
08.10.2014 07:44 9,9 C 8,9 C 94 % 1007,1 hPa 0,0 l/m 0 min 0 min 0 W/m 10,5 km/h (2 Bft)
08.10.2014 07:46 9,9 C 8,9 C 94 % 1007,2 hPa 0,0 l/m 0 min 0 min 0 W/m 14,6 km/h (3 Bft)
08.10.2014 07:48 10,0 C 8,9 C 94 % 1007,2 hPa 0,0 l/m 0 min 0 min 0 W/m 14,6 km/h (3 Bft)
08.10.2014 07:50 10,0 C 8,9 C 94 % 1007,2 hPa 0,0 l/m 0 min 0 min 0 W/m 12,6 km/h (3 Bft)
08.10.2014 07:52 10,0 C 8,9 C 94 % 1007,2 hPa 0,0 l/m 0 min 0 min 0 W/m 14,6 km/h (3 Bft)
08.10.2014 07:54 10,0 C 8,9 C 94 % 1007,2 hPa 0,0 l/m 0 min 0 min 5 W/m 14,6 km/h (3 Bft)
08.10.2014 07:56 10,0 C 8,9 C 95 % 1007,2 hPa 0,0 l/m 0 min 0 min 5 W/m 12,6 km/h (3 Bft)
08.10.2014 07:58 10,0 C 8,9 C 95 % 1007,1 hPa 0,0 l/m 0 min 0 min 5 W/m 16,7 km/h (3 Bft)
08.10.2014 08:00 10,1 C 8,9 C 95 % 1007,1 hPa 0,0 l/m 0 min 0 min 5 W/m 12,6 km/h (3 Bft)
08.10.2014 08:02 10,1 C 8,9 C 95 % 1007,1 hPa 0,0 l/m 0 min 0 min 5 W/m 12,6 km/h (3 Bft)
08.10.2014 08:04 10,1 C 8,9 C 95 % 1007,1 hPa 0,0 l/m 0 min 0 min 5 W/m 14,6 km/h (3 Bft)
08.10.2014 08:06 10,1 C 9,4 C 95 % 1007,1 hPa 0,0 l/m 0 min 0 min 5 W/m 14,6 km/h (3 Bft)
08.10.2014 08:08 10,2 C 9,4 C 95 % 1007,1 hPa 0,0 l/m 0 min 0 min 8 W/m 10,5 km/h (2 Bft)
08.10.2014 08:10 10,2 C 9,4 C 95 % 1007,0 hPa 0,0 l/m 0 min 0 min 9 W/m 12,6 km/h (3 Bft)
08.10.2014 08:12 10,2 C 9,4 C 95 % 1007,1 hPa 0,0 l/m 0 min 0 min 9 W/m 12,6 km/h (3 Bft)
08.10.2014 08:14 10,2 C 9,4 C 95 % 1007,0 hPa 0,0 l/m 0 min 0 min 9 W/m 14,6 km/h (3 Bft)
08.10.2014 08:16 10,3 C 9,4 C 95 % 1007,0 hPa 0,0 l/m 0 min 0 min 10 W/m 16,7 km/h (3 Bft)
08.10.2014 08:18 10,3 C 9,4 C 95 % 1007,0 hPa 0,0 l/m 0 min 0 min 12 W/m 14,6 km/h (3 Bft)
08.10.2014 08:20 10,3 C 9,4 C 95 % 1007,0 hPa 0,0 l/m 0 min 0 min 15 W/m 16,7 km/h (3 Bft)
08.10.2014 08:22 10,4 C 9,4 C 95 % 1006,9 hPa 0,0 l/m 0 min 0 min 16 W/m 10,5 km/h (2 Bft)
08.10.2014 08:24 10,4 C 9,4 C 95 % 1006,9 hPa 0,0 l/m 0 min 0 min 18 W/m 8,4 km/h (2 Bft)
08.10.2014 08:26 10,4 C 9,4 C 95 % 1006,9 hPa 0,0 l/m 0 min 0 min 19 W/m 10,5 km/h (2 Bft)
08.10.2014 08:28 10,4 C 9,4 C 95 % 1006,8 hPa 0,0 l/m 0 min 0 min 19 W/m 8,4 km/h (2 Bft)
08.10.2014 08:30 10,4 C 9,4 C 95 % 1006,8 hPa 0,0 l/m 0 min 0 min 19 W/m 8,4 km/h (2 Bft)
08.10.2014 08:32 10,5 C 9,4 C 95 % 1006,8 hPa 0,0 l/m 0 min 0 min 19 W/m 8,4 km/h (2 Bft)
08.10.2014 08:34 10,5 C 9,4 C 95 % 1006,8 hPa 0,0 l/m 0 min 0 min 19 W/m 6,3 km/h (2 Bft)
08.10.2014 08:36 10,5 C 9,4 C 95 % 1006,7 hPa 0,0 l/m 0 min 0 min 19 W/m 8,4 km/h (2 Bft)
08.10.2014 08:38 10,5 C 9,4 C 95 % 1006,7 hPa 0,0 l/m 0 min 0 min 21 W/m 10,5 km/h (2 Bft)
08.10.2014 08:40 10,6 C 9,4 C 95 % 1006,7 hPa 0,0 l/m 0 min 0 min 25 W/m 10,5 km/h (2 Bft)
08.10.2014 08:42 10,6 C 9,4 C 95 % 1006,6 hPa 0,0 l/m 0 min 0 min 26 W/m 12,6 km/h (3 Bft)
08.10.2014 08:44 10,6 C 9,4 C 95 % 1006,5 hPa 0,0 l/m 0 min 0 min 28 W/m 12,6 km/h (3 Bft)
08.10.2014 08:46 10,6 C 9,4 C 95 % 1006,5 hPa 0,0 l/m 0 min 0 min 28 W/m 14,6 km/h (3 Bft)
08.10.2014 08:48 10,6 C 10,0 C 95 % 1006,4 hPa 0,0 l/m 0 min 0 min 26 W/m 14,6 km/h (3 Bft)
08.10.2014 08:50 10,6 C 10,0 C 95 % 1006,5 hPa 0,0 l/m 0 min 2 min 25 W/m 10,5 km/h (2 Bft)
08.10.2014 08:52 10,6 C 10,0 C 95 % 1006,4 hPa 0,0 l/m 0 min 0 min 27 W/m 10,5 km/h (2 Bft)
08.10.2014 08:54 10,7 C 10,0 C 95 % 1006,5 hPa 0,0 l/m 0 min 0 min 31 W/m 10,5 km/h (2 Bft)
08.10.2014 08:56 10,7 C 10,0 C 95 % 1006,5 hPa 0,0 l/m 0 min 0 min 29 W/m 8,4 km/h (2 Bft)
08.10.2014 08:58 10,7 C 10,0 C 95 % 1006,6 hPa 0,0 l/m 0 min 0 min 29 W/m 10,5 km/h (2 Bft)
08.10.2014 09:00 10,7 C 10,0 C 95 % 1006,5 hPa 0,0 l/m 0 min 0 min 35 W/m 8,4 km/h (2 Bft)
08.10.2014 09:02 10,7 C 10,0 C 95 % 1006,5 hPa 0,0 l/m 0 min 0 min 43 W/m 10,5 km/h (2 Bft)
08.10.2014 09:04 10,7 C 10,0 C 95 % 1006,5 hPa 0,0 l/m 0 min 0 min 48 W/m 10,5 km/h (2 Bft)
08.10.2014 09:06 10,8 C 10,0 C 95 % 1006,6 hPa 0,0 l/m 0 min 0 min 48 W/m 10,5 km/h (2 Bft)
08.10.2014 09:08 10,8 C 10,0 C 95 % 1006,6 hPa 0,0 l/m 0 min 0 min 44 W/m 10,5 km/h (2 Bft)
08.10.2014 09:10 10,8 C 10,0 C 95 % 1006,6 hPa 0,0 l/m 0 min 0 min 38 W/m 10,5 km/h (2 Bft)
08.10.2014 09:12 10,8 C 10,0 C 95 % 1006,6 hPa 0,0 l/m 0 min 0 min 34 W/m 10,5 km/h (2 Bft)
08.10.2014 09:14 10,9 C 10,0 C 96 % 1006,6 hPa 0,0 l/m 0 min 0 min 33 W/m 10,5 km/h (2 Bft)
08.10.2014 09:16 10,9 C 10,0 C 96 % 1006,6 hPa 0,0 l/m 0 min 0 min 34 W/m 10,5 km/h (2 Bft)
08.10.2014 09:18 10,9 C 10,0 C 96 % 1006,6 hPa 0,0 l/m 0 min 0 min 35 W/m 16,7 km/h (3 Bft)
08.10.2014 09:20 10,9 C 10,0 C 96 % 1006,6 hPa 0,0 l/m 0 min 0 min 35 W/m 12,6 km/h (3 Bft)
08.10.2014 09:22 11,0 C 10,0 C 96 % 1006,5 hPa 0,0 l/m 0 min 0 min 35 W/m 16,7 km/h (3 Bft)
08.10.2014 09:24 11,1 C 10,6 C 96 % 1006,5 hPa 0,0 l/m 0 min 0 min 35 W/m 16,7 km/h (3 Bft)
08.10.2014 09:26 11,1 C 10,6 C 96 % 1006,5 hPa 0,0 l/m 0 min 0 min 38 W/m 12,6 km/h (3 Bft)
08.10.2014 09:28 11,1 C 10,6 C 96 % 1006,5 hPa 0,0 l/m 0 min 0 min 42 W/m 12,6 km/h (3 Bft)
08.10.2014 09:30 11,1 C 10,6 C 96 % 1006,6 hPa 0,0 l/m 0 min 0 min 43 W/m 14,6 km/h (3 Bft)
08.10.2014 09:32 11,1 C 10,6 C 96 % 1006,6 hPa 0,0 l/m 0 min 0 min 46 W/m 18,8 km/h (3 Bft)
08.10.2014 09:34 11,2 C 10,6 C 96 % 1006,5 hPa 0,0 l/m 0 min 0 min 47 W/m 20,9 km/h (4 Bft)
08.10.2014 09:36 11,2 C 10,6 C 96 % 1006,5 hPa 0,0 l/m 0 min 0 min 49 W/m 12,6 km/h (3 Bft)
08.10.2014 09:38 11,2 C 10,6 C 96 % 1006,5 hPa 0,0 l/m 0 min 0 min 52 W/m 14,6 km/h (3 Bft)
08.10.2014 09:40 11,2 C 10,6 C 96 % 1006,5 hPa 0,0 l/m 0 min 0 min 54 W/m 16,7 km/h (3 Bft)
08.10.2014 09:42 11,3 C 10,6 C 96 % 1006,5 hPa 0,0 l/m 0 min 0 min 58 W/m 14,6 km/h (3 Bft)
08.10.2014 09:44 11,3 C 10,6 C 96 % 1006,5 hPa 0,0 l/m 0 min 0 min 61 W/m 18,8 km/h (3 Bft)
08.10.2014 09:46 11,4 C 10,6 C 96 % 1006,5 hPa 0,0 l/m 0 min 0 min 63 W/m 18,8 km/h (3 Bft)
08.10.2014 09:48 11,4 C 10,6 C 96 % 1006,4 hPa 0,0 l/m 0 min 0 min 64 W/m 16,7 km/h (3 Bft)
08.10.2014 09:50 11,4 C 10,6 C 96 % 1006,4 hPa 0,0 l/m 0 min 0 min 70 W/m 16,7 km/h (3 Bft)
08.10.2014 09:52 11,4 C 11,1 C 96 % 1006,4 hPa 0,0 l/m 0 min 0 min 77 W/m 18,8 km/h (3 Bft)
08.10.2014 09:54 11,5 C 11,1 C 96 % 1006,4 hPa 0,0 l/m 0 min 0 min 81 W/m 18,8 km/h (3 Bft)
08.10.2014 09:56 11,6 C 11,1 C 96 % 1006,4 hPa 0,0 l/m 0 min 0 min 81 W/m 18,8 km/h (3 Bft)
08.10.2014 09:58 11,6 C 11,1 C 96 % 1006,4 hPa 0,0 l/m 0 min 0 min 81 W/m 14,6 km/h (3 Bft)
08.10.2014 10:00 11,6 C 11,1 C 96 % 1006,3 hPa 0,0 l/m 0 min 0 min 83 W/m 12,6 km/h (3 Bft)
08.10.2014 10:02 11,7 C 11,1 C 96 % 1006,3 hPa 0,0 l/m 0 min 0 min 83 W/m 10,5 km/h (2 Bft)
08.10.2014 10:04 11,7 C 11,1 C 96 % 1006,3 hPa 0,0 l/m 0 min 0 min 84 W/m 14,6 km/h (3 Bft)
08.10.2014 10:06 11,8 C 11,1 C 96 % 1006,3 hPa 0,0 l/m 0 min 0 min 84 W/m 16,7 km/h (3 Bft)
08.10.2014 10:08 11,8 C 11,1 C 96 % 1006,2 hPa 0,0 l/m 0 min 0 min 85 W/m 16,7 km/h (3 Bft)
08.10.2014 10:10 11,8 C 11,7 C 96 % 1006,2 hPa 0,0 l/m 0 min 0 min 90 W/m 10,5 km/h (2 Bft)
08.10.2014 10:12 11,9 C 11,7 C 96 % 1006,2 hPa 0,0 l/m 0 min 0 min 93 W/m 14,6 km/h (3 Bft)
08.10.2014 10:14 11,9 C 11,7 C 96 % 1006,2 hPa 0,0 l/m 0 min 0 min 95 W/m 18,8 km/h (3 Bft)
08.10.2014 10:16 12,0 C 11,7 C 96 % 1006,1 hPa 0,0 l/m 0 min 0 min 95 W/m 18,8 km/h (3 Bft)
08.10.2014 10:18 12,1 C 11,7 C 96 % 1006,1 hPa 0,0 l/m 0 min 0 min 97 W/m 16,7 km/h (3 Bft)
08.10.2014 10:20 12,1 C 11,7 C 96 % 1006,1 hPa 0,0 l/m 0 min 0 min 102 W/m 16,7 km/h (3 Bft)
08.10.2014 10:22 12,2 C 11,7 C 96 % 1006,1 hPa 0,0 l/m 0 min 0 min 108 W/m 20,9 km/h (4 Bft)
08.10.2014 10:24 12,2 C 11,7 C 96 % 1006,0 hPa 0,0 l/m 0 min 0 min 114 W/m 16,7 km/h (3 Bft)
08.10.2014 10:26 12,3 C 12,2 C 96 % 1006,0 hPa 0,0 l/m 0 min 0 min 122 W/m 14,6 km/h (3 Bft)
08.10.2014 10:28 12,3 C 12,2 C 96 % 1006,0 hPa 0,0 l/m 0 min 0 min 125 W/m 16,7 km/h (3 Bft)
08.10.2014 10:30 12,4 C 12,2 C 96 % 1006,0 hPa 0,0 l/m 0 min 0 min 125 W/m 14,6 km/h (3 Bft)
08.10.2014 10:32 12,4 C 12,2 C 96 % 1006,0 hPa 0,0 l/m 0 min 0 min 125 W/m 16,7 km/h (3 Bft)
08.10.2014 10:34 12,5 C 12,2 C 96 % 1006,0 hPa 0,0 l/m 0 min 0 min 121 W/m 16,7 km/h (3 Bft)
08.10.2014 10:36 12,6 C 12,2 C 96 % 1006,0 hPa 0,0 l/m 0 min 0 min 120 W/m 20,9 km/h (4 Bft)
08.10.2014 10:38 12,6 C 12,2 C 96 % 1006,0 hPa 0,0 l/m 0 min 0 min 120 W/m 18,8 km/h (3 Bft)
08.10.2014 10:40 12,7 C 12,2 C 96 % 1006,0 hPa 0,0 l/m 0 min 0 min 117 W/m 16,7 km/h (3 Bft)
08.10.2014 10:42 12,7 C 12,2 C 96 % 1006,0 hPa 0,0 l/m 0 min 0 min 112 W/m 20,9 km/h (4 Bft)
08.10.2014 10:44 12,8 C 12,2 C 96 % 1006,0 hPa 0,0 l/m 0 min 0 min 105 W/m 18,8 km/h (3 Bft)
08.10.2014 10:46 12,8 C 12,2 C 96 % 1006,0 hPa 0,0 l/m 0 min 0 min 98 W/m 20,9 km/h (4 Bft)
08.10.2014 10:48 12,9 C 12,2 C 95 % 1006,1 hPa 0,0 l/m 0 min 0 min 93 W/m 16,7 km/h (3 Bft)
08.10.2014 10:50 12,9 C 12,2 C 95 % 1006,1 hPa 0,0 l/m 0 min 0 min 91 W/m 12,6 km/h (3 Bft)
08.10.2014 10:52 13,0 C 12,2 C 95 % 1006,0 hPa 0,0 l/m 0 min 2 min 91 W/m 12,6 km/h (3 Bft)
08.10.2014 10:54 13,0 C 12,2 C 95 % 1006,1 hPa 0,0 l/m 0 min 2 min 87 W/m 14,6 km/h (3 Bft)
08.10.2014 10:56 13,1 C 12,2 C 95 % 1006,1 hPa 0,0 l/m 0 min 2 min 81 W/m 16,7 km/h (3 Bft)
08.10.2014 10:58 13,1 C 12,2 C 95 % 1006,1 hPa 0,0 l/m 0 min 2 min 78 W/m 14,6 km/h (3 Bft)
08.10.2014 11:00 13,1 C 12,2 C 95 % 1006,0 hPa 0,0 l/m 0 min 2 min 72 W/m 12,6 km/h (3 Bft)
08.10.2014 11:02 13,2 C 12,2 C 95 % 1006,1 hPa 0,0 l/m 0 min 2 min 67 W/m 12,6 km/h (3 Bft)
08.10.2014 11:04 13,2 C 11,7 C 95 % 1006,0 hPa 0,0 l/m 0 min 2 min 63 W/m 14,6 km/h (3 Bft)
08.10.2014 11:06 13,2 C 11,7 C 95 % 1006,0 hPa 0,0 l/m 0 min 2 min 61 W/m 14,6 km/h (3 Bft)
08.10.2014 11:08 13,2 C 11,7 C 95 % 1006,1 hPa 0,0 l/m 0 min 2 min 58 W/m 12,6 km/h (3 Bft)
08.10.2014 11:10 13,3 C 11,7 C 95 % 1006,1 hPa 0,0 l/m 0 min 2 min 55 W/m 10,5 km/h (2 Bft)
08.10.2014 11:12 13,3 C 11,7 C 95 % 1006,2 hPa 0,0 l/m 0 min 2 min 53 W/m 8,4 km/h (2 Bft)
08.10.2014 11:14 13,3 C 11,7 C 95 % 1006,2 hPa 0,2 l/m 0 min 2 min 50 W/m 10,5 km/h (2 Bft)
08.10.2014 11:16 13,3 C 11,7 C 95 % 1006,0 hPa 0,0 l/m 0 min 2 min 49 W/m 14,6 km/h (3 Bft)
08.10.2014 11:18 13,3 C 11,7 C 95 % 1006,1 hPa 0,0 l/m 0 min 2 min 49 W/m 14,6 km/h (3 Bft)
08.10.2014 11:20 13,4 C 11,7 C 95 % 1006,1 hPa 0,0 l/m 0 min 2 min 49 W/m 23,0 km/h (4 Bft)
08.10.2014 11:22 13,4 C 11,7 C 95 % 1006,0 hPa 0,0 l/m 0 min 2 min 48 W/m 16,7 km/h (3 Bft)
08.10.2014 11:24 13,4 C 11,7 C 95 % 1006,0 hPa 0,2 l/m 0 min 2 min 45 W/m 16,7 km/h (3 Bft)
08.10.2014 11:26 13,4 C 11,7 C 95 % 1006,0 hPa 0,0 l/m 0 min 2 min 43 W/m 16,7 km/h (3 Bft)
08.10.2014 11:28 13,4 C 11,7 C 95 % 1005,9 hPa 0,0 l/m 0 min 2 min 40 W/m 20,9 km/h (4 Bft)
08.10.2014 11:30 13,5 C 11,7 C 95 % 1006,0 hPa 0,0 l/m 0 min 2 min 40 W/m 16,7 km/h (3 Bft)
08.10.2014 11:32 13,5 C 11,7 C 95 % 1005,9 hPa 0,2 l/m 0 min 2 min 40 W/m 14,6 km/h (3 Bft)
08.10.2014 11:34 13,5 C 11,7 C 95 % 1005,8 hPa 0,0 l/m 0 min 2 min 43 W/m 23,0 km/h (4 Bft)
08.10.2014 11:36 13,5 C 11,7 C 95 % 1005,9 hPa 0,0 l/m 0 min 2 min 45 W/m 16,7 km/h (3 Bft)
08.10.2014 11:38 13,5 C 11,7 C 95 % 1005,8 hPa 0,2 l/m 0 min 2 min 46 W/m 18,8 km/h (3 Bft)
08.10.2014 11:40 13,5 C 11,7 C 95 % 1005,8 hPa 0,0 l/m 0 min 2 min 49 W/m 10,5 km/h (2 Bft)
08.10.2014 11:42 13,5 C 11,7 C 95 % 1005,8 hPa 0,2 l/m 0 min 2 min 54 W/m 16,7 km/h (3 Bft)
08.10.2014 11:44 13,5 C 11,7 C 95 % 1005,8 hPa 0,0 l/m 0 min 2 min 56 W/m 14,6 km/h (3 Bft)
08.10.2014 11:46 13,6 C 11,7 C 95 % 1005,7 hPa 0,0 l/m 0 min 2 min 56 W/m 20,9 km/h (4 Bft)
08.10.2014 11:48 13,5 C 11,7 C 95 % 1005,8 hPa 0,0 l/m 0 min 2 min 54 W/m 18,8 km/h (3 Bft)
08.10.2014 11:50 13,5 C 11,7 C 95 % 1005,7 hPa 0,2 l/m 0 min 2 min 54 W/m 18,8 km/h (3 Bft)
08.10.2014 11:52 13,5 C 11,7 C 95 % 1005,7 hPa 0,0 l/m 0 min 2 min 57 W/m 16,7 km/h (3 Bft)
08.10.2014 11:54 13,4 C 11,7 C 95 % 1005,7 hPa 0,0 l/m 0 min 2 min 59 W/m 14,6 km/h (3 Bft)
08.10.2014 11:56 13,4 C 11,7 C 95 % 1005,7 hPa 0,2 l/m 0 min 2 min 65 W/m 23,0 km/h (4 Bft)
08.10.2014 11:58 13,4 C 11,7 C 95 % 1005,7 hPa 0,0 l/m 0 min 2 min 70 W/m 18,8 km/h (3 Bft)
08.10.2014 12:00 13,4 C 11,7 C 95 % 1005,7 hPa 0,0 l/m 0 min 2 min 74 W/m 23,0 km/h (4 Bft)
08.10.2014 12:02 13,4 C 11,7 C 95 % 1005,7 hPa 0,0 l/m 0 min 2 min 76 W/m 23,0 km/h (4 Bft)
08.10.2014 12:05 13,3 C 11,7 C 95 % 1005,6 hPa 0,2 l/m 0 min 2 min 79 W/m 23,0 km/h (4 Bft)
08.10.2014 12:06 13,3 C 11,7 C 95 % 1005,6 hPa 0,2 l/m 0 min 1 min 78 W/m 23,0 km/h (4 Bft)
08.10.2014 12:08 13,3 C 11,7 C 95 % 1005,5 hPa 0,0 l/m 0 min 2 min 83 W/m 16,7 km/h (3 Bft)
08.10.2014 12:10 13,3 C 11,7 C 95 % 1005,6 hPa 0,0 l/m 0 min 2 min 87 W/m 25,1 km/h (4 Bft)
08.10.2014 12:12 13,3 C 11,7 C 95 % 1005,6 hPa 0,0 l/m 0 min 2 min 90 W/m 18,8 km/h (3 Bft)
08.10.2014 12:14 13,3 C 11,7 C 95 % 1005,6 hPa 0,0 l/m 0 min 2 min 90 W/m 20,9 km/h (4 Bft)
08.10.2014 12:16 13,3 C 11,7 C 95 % 1005,5 hPa 0,0 l/m 0 min 2 min 90 W/m 16,7 km/h (3 Bft)
08.10.2014 12:18 13,3 C 11,7 C 95 % 1005,6 hPa 0,0 l/m 0 min 2 min 90 W/m 23,0 km/h (4 Bft)
08.10.2014 12:20 13,3 C 11,7 C 96 % 1005,6 hPa 0,0 l/m 0 min 2 min 87 W/m 16,7 km/h (3 Bft)
08.10.2014 12:22 13,3 C 11,7 C 96 % 1005,5 hPa 0,0 l/m 0 min 2 min 85 W/m 16,7 km/h (3 Bft)
08.10.2014 12:24 13,3 C 11,7 C 96 % 1005,5 hPa 0,2 l/m 0 min 2 min 80 W/m 23,0 km/h (4 Bft)
08.10.2014 12:26 13,3 C 11,7 C 96 % 1005,5 hPa 0,0 l/m 0 min 2 min 72 W/m 29,3 km/h (5 Bft)
08.10.2014 12:28 13,3 C 11,7 C 96 % 1005,4 hPa 0,0 l/m 0 min 2 min 64 W/m 25,1 km/h (4 Bft)
08.10.2014 12:30 13,3 C 11,7 C 96 % 1005,5 hPa 0,0 l/m 0 min 2 min 58 W/m 23,0 km/h (4 Bft)
08.10.2014 12:32 13,3 C 11,7 C 96 % 1005,5 hPa 0,0 l/m 0 min 2 min 53 W/m 20,9 km/h (4 Bft)
08.10.2014 12:34 13,3 C 11,7 C 96 % 1005,4 hPa 0,2 l/m 0 min 2 min 51 W/m 16,7 km/h (3 Bft)
08.10.2014 12:36 13,2 C 11,7 C 96 % 1005,4 hPa 0,0 l/m 0 min 2 min 53 W/m 31,4 km/h (5 Bft)
08.10.2014 12:38 13,2 C 11,7 C 96 % 1005,3 hPa 0,0 l/m 0 min 2 min 57 W/m 20,9 km/h (4 Bft)
08.10.2014 12:40 13,2 C 11,7 C 96 % 1005,4 hPa 0,0 l/m 0 min 2 min 67 W/m 25,1 km/h (4 Bft)
08.10.2014 12:42 13,2 C 11,7 C 96 % 1005,3 hPa 0,2 l/m 0 min 2 min 71 W/m 27,2 km/h (4 Bft)
08.10.2014 12:44 13,2 C 11,7 C 96 % 1005,4 hPa 0,0 l/m 0 min 2 min 76 W/m 23,0 km/h (4 Bft)
08.10.2014 12:46 13,2 C 11,7 C 96 % 1005,2 hPa 0,0 l/m 0 min 2 min 77 W/m 23,0 km/h (4 Bft)
08.10.2014 12:48 13,2 C 11,7 C 96 % 1005,1 hPa 0,2 l/m 0 min 2 min 77 W/m 25,1 km/h (4 Bft)
08.10.2014 12:50 13,2 C 11,7 C 96 % 1005,1 hPa 0,0 l/m 0 min 2 min 79 W/m 20,9 km/h (4 Bft)
08.10.2014 12:52 13,2 C 11,7 C 96 % 1005,1 hPa 0,0 l/m 0 min 2 min 82 W/m 16,7 km/h (3 Bft)
08.10.2014 12:54 13,2 C 11,7 C 96 % 1005,1 hPa 0,2 l/m 0 min 2 min 74 W/m 20,9 km/h (4 Bft)
08.10.2014 12:56 13,2 C 11,7 C 96 % 1005,1 hPa 0,0 l/m 0 min 2 min 67 W/m 12,6 km/h (3 Bft)
08.10.2014 12:58 13,2 C 11,7 C 97 % 1005,1 hPa 0,0 l/m 0 min 2 min 63 W/m 16,7 km/h (3 Bft)
08.10.2014 13:00 13,3 C 11,7 C 97 % 1005,1 hPa 0,0 l/m 0 min 2 min 65 W/m 23,0 km/h (4 Bft)
08.10.2014 13:02 13,3 C 11,7 C 97 % 1005,1 hPa 0,2 l/m 0 min 2 min 67 W/m 20,9 km/h (4 Bft)
08.10.2014 13:04 13,3 C 11,7 C 97 % 1005,1 hPa 0,0 l/m 0 min 2 min 70 W/m 12,6 km/h (3 Bft)
08.10.2014 13:06 13,3 C 11,7 C 97 % 1005,0 hPa 0,0 l/m 0 min 2 min 85 W/m 14,6 km/h (3 Bft)
08.10.2014 13:08 13,3 C 12,2 C 97 % 1005,0 hPa 0,2 l/m 0 min 2 min 115 W/m 23,0 km/h (4 Bft)
08.10.2014 13:10 13,3 C 12,2 C 97 % 1004,9 hPa 0,0 l/m 0 min 2 min 145 W/m 18,8 km/h (3 Bft)
08.10.2014 13:12 13,3 C 12,2 C 97 % 1004,8 hPa 0,0 l/m 0 min 2 min 167 W/m 18,8 km/h (3 Bft)
08.10.2014 13:14 13,3 C 12,2 C 97 % 1004,9 hPa 0,2 l/m 0 min 2 min 174 W/m 18,8 km/h (3 Bft)
08.10.2014 13:16 13,4 C 12,2 C 97 % 1004,9 hPa 0,0 l/m 0 min 2 min 157 W/m 25,1 km/h (4 Bft)
08.10.2014 13:18 13,4 C 12,2 C 97 % 1004,9 hPa 0,0 l/m 0 min 2 min 139 W/m 23,0 km/h (4 Bft)
08.10.2014 13:20 13,4 C 12,2 C 97 % 1004,9 hPa 0,0 l/m 0 min 2 min 126 W/m 18,8 km/h (3 Bft)
08.10.2014 13:22 13,5 C 12,2 C 97 % 1004,9 hPa 0,0 l/m 0 min 2 min 105 W/m 18,8 km/h (3 Bft)
08.10.2014 13:24 13,5 C 12,2 C 97 % 1005,0 hPa 0,0 l/m 0 min 2 min 90 W/m 18,8 km/h (3 Bft)
08.10.2014 13:26 13,5 C 12,2 C 97 % 1004,9 hPa 0,0 l/m 0 min 2 min 78 W/m 20,9 km/h (4 Bft)
08.10.2014 13:28 13,5 C 12,2 C 97 % 1004,9 hPa 0,2 l/m 0 min 2 min 79 W/m 23,0 km/h (4 Bft)
08.10.2014 13:30 13,5 C 12,2 C 97 % 1004,9 hPa 0,0 l/m 0 min 2 min 92 W/m 16,7 km/h (3 Bft)
08.10.2014 13:32 13,5 C 12,2 C 97 % 1004,9 hPa 0,0 l/m 0 min 2 min 106 W/m 18,8 km/h (3 Bft)
08.10.2014 13:34 13,5 C 12,2 C 97 % 1005,0 hPa 0,2 l/m 0 min 2 min 100 W/m 16,7 km/h (3 Bft)
08.10.2014 13:36 13,6 C 12,2 C 97 % 1005,0 hPa 0,0 l/m 0 min 2 min 89 W/m 16,7 km/h (3 Bft)
08.10.2014 13:38 13,6 C 12,2 C 97 % 1004,9 hPa 0,2 l/m 0 min 2 min 80 W/m 25,1 km/h (4 Bft)
08.10.2014 13:40 13,6 C 12,2 C 97 % 1004,8 hPa 0,0 l/m 0 min 2 min 73 W/m 25,1 km/h (4 Bft)
08.10.2014 13:42 13,6 C 12,2 C 97 % 1004,7 hPa 0,0 l/m 0 min 2 min 72 W/m 20,9 km/h (4 Bft)
08.10.2014 13:44 13,6 C 12,2 C 97 % 1004,6 hPa 0,2 l/m 0 min 2 min 86 W/m 29,3 km/h (5 Bft)
08.10.2014 13:46 13,6 C 12,2 C 97 % 1004,6 hPa 0,0 l/m 0 min 2 min 101 W/m 16,7 km/h (3 Bft)
08.10.2014 13:48 13,6 C 12,2 C 97 % 1004,6 hPa 0,0 l/m 0 min 2 min 110 W/m 18,8 km/h (3 Bft)
08.10.2014 13:50 13,6 C 12,2 C 97 % 1004,5 hPa 0,2 l/m 0 min 2 min 111 W/m 16,7 km/h (3 Bft)
08.10.2014 13:52 13,6 C 12,2 C 97 % 1004,4 hPa 0,0 l/m 0 min 2 min 94 W/m 20,9 km/h (4 Bft)
08.10.2014 13:54 13,6 C 12,2 C 97 % 1004,4 hPa 0,0 l/m 0 min 2 min 78 W/m 25,1 km/h (4 Bft)
08.10.2014 13:56 13,6 C 12,2 C 97 % 1004,4 hPa 0,0 l/m 0 min 2 min 74 W/m 18,8 km/h (3 Bft)
08.10.2014 13:58 13,7 C 12,2 C 97 % 1004,3 hPa 0,0 l/m 0 min 2 min 80 W/m 27,2 km/h (4 Bft)
08.10.2014 14:00 13,7 C 12,2 C 97 % 1004,3 hPa 0,2 l/m 0 min 2 min 89 W/m 23,0 km/h (4 Bft)
08.10.2014 14:02 13,7 C 12,2 C 97 % 1004,3 hPa 0,0 l/m 0 min 2 min 90 W/m 18,8 km/h (3 Bft)
08.10.2014 14:04 13,7 C 12,2 C 97 % 1004,2 hPa 0,0 l/m 0 min 2 min 89 W/m 16,7 km/h (3 Bft)
08.10.2014 14:06 13,7 C 12,2 C 97 % 1004,2 hPa 0,2 l/m 0 min 2 min 78 W/m 20,9 km/h (4 Bft)
08.10.2014 14:08 13,7 C 12,2 C 97 % 1004,2 hPa 0,0 l/m 0 min 2 min 63 W/m 18,8 km/h (3 Bft)
08.10.2014 14:10 13,7 C 12,2 C 97 % 1004,1 hPa 0,2 l/m 0 min 2 min 65 W/m 16,7 km/h (3 Bft)
08.10.2014 14:12 13,7 C 12,2 C 97 % 1004,0 hPa 0,0 l/m 0 min 2 min 71 W/m 16,7 km/h (3 Bft)
08.10.2014 14:14 13,7 C 12,2 C 97 % 1004,1 hPa 0,0 l/m 0 min 2 min 76 W/m 20,9 km/h (4 Bft)
08.10.2014 14:16 13,7 C 12,2 C 97 % 1004,0 hPa 0,0 l/m 0 min 2 min 76 W/m 20,9 km/h (4 Bft)
08.10.2014 14:18 13,7 C 12,2 C 97 % 1003,9 hPa 0,2 l/m 0 min 2 min 72 W/m 18,8 km/h (3 Bft)
08.10.2014 14:20 13,7 C 12,2 C 98 % 1003,9 hPa 0,0 l/m 0 min 2 min 60 W/m 18,8 km/h (3 Bft)
08.10.2014 14:22 13,7 C 12,2 C 98 % 1004,0 hPa 0,0 l/m 0 min 2 min 55 W/m 20,9 km/h (4 Bft)
08.10.2014 14:24 13,7 C 12,2 C 98 % 1003,9 hPa 0,0 l/m 0 min 2 min 52 W/m 18,8 km/h (3 Bft)
08.10.2014 14:26 13,7 C 12,2 C 98 % 1003,9 hPa 0,0 l/m 0 min 2 min 51 W/m 27,2 km/h (4 Bft)
08.10.2014 14:28 13,7 C 12,2 C 98 % 1003,7 hPa 0,0 l/m 0 min 2 min 71 W/m 23,0 km/h (4 Bft)
08.10.2014 14:30 13,7 C 12,2 C 98 % 1003,6 hPa 0,0 l/m 0 min 2 min 93 W/m 27,2 km/h (4 Bft)
08.10.2014 14:32 13,7 C 12,2 C 98 % 1003,5 hPa 0,0 l/m 0 min 2 min 103 W/m 25,1 km/h (4 Bft)
08.10.2014 14:34 13,7 C 12,2 C 98 % 1003,5 hPa 0,0 l/m 0 min 2 min 97 W/m 29,3 km/h (5 Bft)
08.10.2014 14:36 13,7 C 12,2 C 98 % 1003,5 hPa 0,0 l/m 0 min 2 min 94 W/m 20,9 km/h (4 Bft)
08.10.2014 14:38 13,7 C 12,2 C 98 % 1003,4 hPa 0,0 l/m 0 min 2 min 97 W/m 25,1 km/h (4 Bft)
08.10.2014 14:40 13,7 C 12,2 C 98 % 1003,3 hPa 0,0 l/m 0 min 2 min 106 W/m 23,0 km/h (4 Bft)
08.10.2014 14:42 13,7 C 12,8 C 98 % 1003,2 hPa 0,0 l/m 0 min 2 min 113 W/m 20,9 km/h (4 Bft)
08.10.2014 14:44 13,7 C 12,8 C 98 % 1003,3 hPa 0,0 l/m 0 min 0 min 105 W/m 27,2 km/h (4 Bft)
08.10.2014 14:46 13,7 C 12,2 C 98 % 1003,3 hPa 0,2 l/m 0 min 0 min 93 W/m 25,1 km/h (4 Bft)
08.10.2014 14:48 13,7 C 12,8 C 98 % 1003,3 hPa 0,0 l/m 0 min 2 min 95 W/m 31,4 km/h (5 Bft)
08.10.2014 14:50 13,7 C 12,8 C 98 % 1003,2 hPa 0,0 l/m 0 min 2 min 101 W/m 31,4 km/h (5 Bft)
08.10.2014 14:52 13,8 C 12,8 C 98 % 1003,1 hPa 0,0 l/m 0 min 0 min 117 W/m 27,2 km/h (4 Bft)
08.10.2014 14:54 13,8 C 12,8 C 98 % 1003,1 hPa 0,0 l/m 0 min 0 min 142 W/m 33,5 km/h (5 Bft)
08.10.2014 14:56 13,8 C 12,8 C 98 % 1003,0 hPa 0,0 l/m 0 min 0 min 142 W/m 27,2 km/h (4 Bft)
08.10.2014 14:58 13,8 C 12,8 C 98 % 1003,0 hPa 0,0 l/m 0 min 2 min 146 W/m 27,2 km/h (4 Bft)
08.10.2014 15:00 13,9 C 12,8 C 98 % 1002,9 hPa 0,0 l/m 0 min 2 min 159 W/m 25,1 km/h (4 Bft)
08.10.2014 15:02 13,9 C 12,8 C 98 % 1002,9 hPa 0,0 l/m 0 min 2 min 165 W/m 23,0 km/h (4 Bft)
08.10.2014 15:04 13,9 C 12,8 C 98 % 1002,9 hPa 0,0 l/m 0 min 2 min 176 W/m 23,0 km/h (4 Bft)
08.10.2014 15:06 13,9 C 12,8 C 98 % 1002,9 hPa 0,0 l/m 2 min 0 min 191 W/m 25,1 km/h (4 Bft)
08.10.2014 15:08 14,0 C 12,8 C 98 % 1002,9 hPa 0,0 l/m 2 min 0 min 187 W/m 25,1 km/h (4 Bft)
08.10.2014 15:10 14,0 C 12,8 C 98 % 1002,9 hPa 0,0 l/m 0 min 0 min 169 W/m 27,2 km/h (4 Bft)
08.10.2014 15:12 14,1 C 13,3 C 98 % 1002,9 hPa 0,0 l/m 0 min 0 min 155 W/m 25,1 km/h (4 Bft)
08.10.2014 15:14 14,1 C 13,3 C 98 % 1002,9 hPa 0,0 l/m 0 min 0 min 155 W/m 16,7 km/h (3 Bft)
08.10.2014 15:16 14,2 C 13,3 C 98 % 1002,8 hPa 0,0 l/m 0 min 0 min 169 W/m 18,8 km/h (3 Bft)
08.10.2014 15:18 14,2 C 13,3 C 98 % 1002,8 hPa 0,0 l/m 2 min 0 min 201 W/m 25,1 km/h (4 Bft)
08.10.2014 15:20 14,2 C 13,3 C 98 % 1002,8 hPa 0,0 l/m 2 min 0 min 197 W/m 35,6 km/h (5 Bft)
08.10.2014 15:22 14,2 C 13,3 C 98 % 1002,9 hPa 0,0 l/m 2 min 0 min 183 W/m 16,7 km/h (3 Bft)
08.10.2014 15:24 14,2 C 13,3 C 98 % 1002,7 hPa 0,0 l/m 2 min 0 min 183 W/m 20,9 km/h (4 Bft)
08.10.2014 15:26 14,2 C 13,3 C 98 % 1002,7 hPa 0,0 l/m 2 min 0 min 186 W/m 25,1 km/h (4 Bft)
08.10.2014 15:28 14,2 C 13,3 C 98 % 1002,6 hPa 0,0 l/m 0 min 0 min 158 W/m 25,1 km/h (4 Bft)
08.10.2014 15:30 14,2 C 13,3 C 98 % 1002,5 hPa 0,0 l/m 2 min 0 min 175 W/m 20,9 km/h (4 Bft)
08.10.2014 15:32 14,2 C 13,9 C 98 % 1002,5 hPa 0,0 l/m 2 min 0 min 183 W/m 25,1 km/h (4 Bft)
08.10.2014 15:34 14,3 C 13,9 C 98 % 1002,4 hPa 0,0 l/m 2 min 0 min 167 W/m 23,0 km/h (4 Bft)
08.10.2014 15:36 14,3 C 13,9 C 98 % 1002,5 hPa 0,0 l/m 2 min 0 min 166 W/m 16,7 km/h (3 Bft)
08.10.2014 15:38 14,3 C 13,9 C 98 % 1002,4 hPa 0,0 l/m 2 min 0 min 189 W/m 27,2 km/h (4 Bft)
08.10.2014 15:40 14,4 C 13,9 C 98 % 1002,5 hPa 0,0 l/m 0 min 0 min 149 W/m 14,6 km/h (3 Bft)
08.10.2014 15:42 14,4 C 13,9 C 98 % 1002,5 hPa 0,0 l/m 0 min 0 min 138 W/m 16,7 km/h (3 Bft)
08.10.2014 15:44 14,4 C 13,9 C 98 % 1002,5 hPa 0,0 l/m 0 min 0 min 128 W/m 18,8 km/h (3 Bft)
08.10.2014 15:46 14,4 C 13,9 C 98 % 1002,4 hPa 0,0 l/m 0 min 0 min 149 W/m 18,8 km/h (3 Bft)
08.10.2014 15:48 14,4 C 13,9 C 98 % 1002,3 hPa 0,0 l/m 2 min 0 min 168 W/m 14,6 km/h (3 Bft)
08.10.2014 15:50 14,4 C 13,9 C 98 % 1002,2 hPa 0,0 l/m 0 min 0 min 122 W/m 23,0 km/h (4 Bft)
08.10.2014 15:52 14,4 C 13,3 C 98 % 1002,2 hPa 0,0 l/m 0 min 0 min 85 W/m 16,7 km/h (3 Bft)
08.10.2014 15:54 14,4 C 13,3 C 98 % 1002,2 hPa 0,0 l/m 0 min 0 min 77 W/m 20,9 km/h (4 Bft)
08.10.2014 15:56 14,4 C 13,3 C 98 % 1002,1 hPa 0,0 l/m 0 min 0 min 86 W/m 20,9 km/h (4 Bft)
08.10.2014 15:58 14,4 C 13,3 C 98 % 1002,1 hPa 0,0 l/m 0 min 0 min 96 W/m 25,1 km/h (4 Bft)
08.10.2014 16:00 14,4 C 13,3 C 98 % 1002,0 hPa 0,0 l/m 0 min 0 min 106 W/m 23,0 km/h (4 Bft)
08.10.2014 16:02 14,4 C 13,3 C 98 % 1002,0 hPa 0,0 l/m 0 min 0 min 121 W/m 18,8 km/h (3 Bft)
08.10.2014 16:04 14,4 C 13,9 C 98 % 1002,0 hPa 0,0 l/m 2 min 0 min 175 W/m 20,9 km/h (4 Bft)
08.10.2014 16:06 14,4 C 13,9 C 98 % 1001,9 hPa 0,0 l/m 2 min 0 min 463 W/m 16,7 km/h (3 Bft)
08.10.2014 16:08 14,6 C 13,9 C 98 % 1001,9 hPa 0,0 l/m 2 min 0 min 421 W/m 20,9 km/h (4 Bft)
08.10.2014 16:10 14,7 C 13,9 C 98 % 1001,8 hPa 0,0 l/m 2 min 0 min 413 W/m 25,1 km/h (4 Bft)
08.10.2014 16:12 14,7 C 13,9 C 98 % 1001,9 hPa 0,0 l/m 2 min 0 min 250 W/m 27,2 km/h (4 Bft)
08.10.2014 16:14 14,8 C 14,4 C 98 % 1001,8 hPa 0,0 l/m 2 min 0 min 407 W/m 20,9 km/h (4 Bft)
08.10.2014 16:16 14,9 C 13,9 C 99 % 1001,8 hPa 0,0 l/m 2 min 0 min 233 W/m 23,0 km/h (4 Bft)
08.10.2014 16:18 14,9 C 13,9 C 99 % 1001,8 hPa 0,0 l/m 2 min 0 min 194 W/m 23,0 km/h (4 Bft)
08.10.2014 16:20 14,9 C 13,9 C 99 % 1001,8 hPa 0,0 l/m 2 min 0 min 151 W/m 14,6 km/h (3 Bft)
08.10.2014 16:22 15,0 C 13,9 C 99 % 1001,8 hPa 0,0 l/m 2 min 0 min 207 W/m 18,8 km/h (3 Bft)
08.10.2014 16:24 15,0 C 13,9 C 99 % 1001,7 hPa 0,0 l/m 2 min 0 min 382 W/m 16,7 km/h (3 Bft)
08.10.2014 16:26 15,1 C 13,9 C 98 % 1001,7 hPa 0,0 l/m 2 min 0 min 350 W/m 16,7 km/h (3 Bft)
08.10.2014 16:28 15,2 C 13,9 C 98 % 1001,7 hPa 0,0 l/m 2 min 0 min 321 W/m 25,1 km/h (4 Bft)
08.10.2014 16:30 15,2 C 13,9 C 98 % 1001,7 hPa 0,0 l/m 2 min 0 min 291 W/m 16,7 km/h (3 Bft)
08.10.2014 16:32 15,3 C 13,9 C 99 % 1001,6 hPa 0,0 l/m 2 min 0 min 296 W/m 20,9 km/h (4 Bft)
08.10.2014 16:34 15,3 C 13,9 C 99 % 1001,6 hPa 0,0 l/m 2 min 0 min 295 W/m 27,2 km/h (4 Bft)
08.10.2014 16:36 15,3 C 13,9 C 99 % 1001,6 hPa 0,0 l/m 2 min 0 min 255 W/m 25,1 km/h (4 Bft)
08.10.2014 16:38 15,3 C 13,9 C 98 % 1001,7 hPa 0,0 l/m 0 min 0 min 115 W/m 23,0 km/h (4 Bft)
08.10.2014 16:40 15,3 C 13,9 C 98 % 1001,7 hPa 0,0 l/m 2 min 0 min 202 W/m 20,9 km/h (4 Bft)
08.10.2014 16:42 15,4 C 13,9 C 98 % 1001,8 hPa 0,0 l/m 2 min 0 min 145 W/m 16,7 km/h (3 Bft)
08.10.2014 16:44 15,4 C 13,9 C 98 % 1001,9 hPa 0,0 l/m 0 min 0 min 72 W/m 18,8 km/h (3 Bft)
08.10.2014 16:46 15,4 C 13,9 C 98 % 1001,8 hPa 0,0 l/m 0 min 0 min 55 W/m 14,6 km/h (3 Bft)
08.10.2014 16:48 15,4 C 13,9 C 98 % 1001,7 hPa 0,0 l/m 0 min 0 min 84 W/m 16,7 km/h (3 Bft)
08.10.2014 16:50 15,4 C 13,9 C 98 % 1001,7 hPa 0,0 l/m 2 min 0 min 116 W/m 14,6 km/h (3 Bft)
08.10.2014 16:52 15,4 C 13,9 C 98 % 1001,8 hPa 0,0 l/m 2 min 0 min 178 W/m 18,8 km/h (3 Bft)
08.10.2014 16:54 15,4 C 13,9 C 98 % 1001,7 hPa 0,0 l/m 2 min 0 min 181 W/m 14,6 km/h (3 Bft)
08.10.2014 16:56 15,5 C 14,4 C 98 % 1001,7 hPa 0,0 l/m 2 min 0 min 291 W/m 23,0 km/h (4 Bft)
08.10.2014 16:58 15,6 C 14,4 C 98 % 1001,7 hPa 0,0 l/m 2 min 0 min 246 W/m 23,0 km/h (4 Bft)
08.10.2014 17:00 15,6 C 14,4 C 98 % 1001,6 hPa 0,0 l/m 2 min 0 min 192 W/m 20,9 km/h (4 Bft)
08.10.2014 17:02 15,7 C 14,4 C 98 % 1001,6 hPa 0,0 l/m 2 min 0 min 191 W/m 16,7 km/h (3 Bft)
08.10.2014 17:04 15,7 C 14,4 C 98 % 1001,6 hPa 0,0 l/m 2 min 0 min 249 W/m 23,0 km/h (4 Bft)
08.10.2014 17:06 15,7 C 14,4 C 98 % 1001,6 hPa 0,0 l/m 2 min 0 min 187 W/m 18,8 km/h (3 Bft)
08.10.2014 17:08 15,8 C 14,4 C 98 % 1001,7 hPa 0,0 l/m 2 min 0 min 171 W/m 14,6 km/h (3 Bft)
08.10.2014 17:10 15,8 C 14,4 C 98 % 1001,6 hPa 0,0 l/m 2 min 0 min 176 W/m 14,6 km/h (3 Bft)
08.10.2014 17:12 15,8 C 14,4 C 98 % 1001,7 hPa 0,0 l/m 2 min 0 min 177 W/m 16,7 km/h (3 Bft)
08.10.2014 17:14 15,9 C 14,4 C 98 % 1001,6 hPa 0,0 l/m 2 min 0 min 185 W/m 18,8 km/h (3 Bft)
08.10.2014 17:16 15,9 C 14,4 C 98 % 1001,6 hPa 0,0 l/m 2 min 0 min 200 W/m 16,7 km/h (3 Bft)
08.10.2014 17:18 15,9 C 14,4 C 98 % 1001,6 hPa 0,0 l/m 2 min 0 min 184 W/m 18,8 km/h (3 Bft)
08.10.2014 17:20 15,9 C 14,4 C 98 % 1001,7 hPa 0,0 l/m 2 min 2 min 173 W/m 12,6 km/h (3 Bft)
08.10.2014 17:22 15,9 C 14,4 C 98 % 1001,6 hPa 0,0 l/m 2 min 0 min 97 W/m 16,7 km/h (3 Bft)
08.10.2014 17:24 15,9 C 14,4 C 98 % 1001,6 hPa 0,0 l/m 2 min 0 min 95 W/m 14,6 km/h (3 Bft)
08.10.2014 17:26 16,0 C 14,4 C 98 % 1001,6 hPa 0,0 l/m 2 min 0 min 124 W/m 12,6 km/h (3 Bft)
08.10.2014 17:28 16,0 C 14,4 C 97 % 1001,6 hPa 0,0 l/m 2 min 0 min 150 W/m 14,6 km/h (3 Bft)
08.10.2014 17:30 16,0 C 14,4 C 97 % 1001,6 hPa 0,0 l/m 2 min 0 min 179 W/m 10,5 km/h (2 Bft)
08.10.2014 17:32 16,1 C 14,4 C 97 % 1001,7 hPa 0,0 l/m 2 min 0 min 132 W/m 23,0 km/h (4 Bft)
08.10.2014 17:34 16,1 C 14,4 C 97 % 1001,7 hPa 0,0 l/m 2 min 2 min 132 W/m 25,1 km/h (4 Bft)
08.10.2014 17:36 16,1 C 14,4 C 97 % 1001,7 hPa 0,0 l/m 2 min 0 min 160 W/m 12,6 km/h (3 Bft)
08.10.2014 17:38 16,1 C 14,4 C 97 % 1001,7 hPa 0,0 l/m 2 min 0 min 92 W/m 16,7 km/h (3 Bft)
08.10.2014 17:40 16,1 C 14,4 C 97 % 1001,7 hPa 0,0 l/m 2 min 0 min 91 W/m 16,7 km/h (3 Bft)
08.10.2014 17:42 16,1 C 14,4 C 97 % 1001,8 hPa 0,0 l/m 0 min 0 min 52 W/m 16,7 km/h (3 Bft)
08.10.2014 17:44 16,1 C 14,4 C 97 % 1001,7 hPa 0,0 l/m 0 min 0 min 46 W/m 14,6 km/h (3 Bft)
08.10.2014 17:46 16,1 C 13,9 C 97 % 1001,7 hPa 0,0 l/m 0 min 0 min 52 W/m 20,9 km/h (4 Bft)
08.10.2014 17:48 16,1 C 14,4 C 97 % 1001,7 hPa 0,0 l/m 2 min 0 min 67 W/m 16,7 km/h (3 Bft)
08.10.2014 17:50 16,1 C 14,4 C 96 % 1001,6 hPa 0,0 l/m 2 min 0 min 66 W/m 20,9 km/h (4 Bft)
08.10.2014 17:52 16,1 C 14,4 C 96 % 1001,6 hPa 0,0 l/m 2 min 0 min 64 W/m 14,6 km/h (3 Bft)
08.10.2014 17:54 16,1 C 13,9 C 96 % 1001,6 hPa 0,0 l/m 0 min 0 min 52 W/m 14,6 km/h (3 Bft)
08.10.2014 17:56 16,1 C 13,9 C 96 % 1001,6 hPa 0,0 l/m 0 min 0 min 40 W/m 12,6 km/h (3 Bft)
08.10.2014 17:58 16,1 C 13,9 C 96 % 1001,6 hPa 0,0 l/m 0 min 0 min 32 W/m 16,7 km/h (3 Bft)
08.10.2014 18:00 16,1 C 13,9 C 96 % 1001,5 hPa 0,0 l/m 0 min 0 min 33 W/m 16,7 km/h (3 Bft)
08.10.2014 18:02 16,1 C 13,9 C 96 % 1001,5 hPa 0,0 l/m 0 min 0 min 32 W/m 18,8 km/h (3 Bft)
08.10.2014 18:05 16,1 C 13,9 C 96 % 1001,6 hPa 0,0 l/m 0 min 0 min 26 W/m 16,7 km/h (3 Bft)
08.10.2014 18:06 16,1 C 13,9 C 96 % 1001,6 hPa 0,0 l/m 0 min 0 min 27 W/m 16,7 km/h (3 Bft)
08.10.2014 18:08 16,1 C 14,4 C 96 % 1001,7 hPa 0,0 l/m 0 min 0 min 26 W/m 14,6 km/h (3 Bft)
08.10.2014 18:10 16,1 C 14,4 C 96 % 1001,8 hPa 0,0 l/m 0 min 0 min 25 W/m 20,9 km/h (4 Bft)
08.10.2014 18:12 16,1 C 14,4 C 96 % 1001,7 hPa 0,0 l/m 0 min 0 min 27 W/m 18,8 km/h (3 Bft)
08.10.2014 18:14 16,1 C 14,4 C 96 % 1001,7 hPa 0,0 l/m 0 min 0 min 34 W/m 14,6 km/h (3 Bft)
08.10.2014 18:16 16,1 C 14,4 C 96 % 1001,7 hPa 0,0 l/m 2 min 0 min 40 W/m 12,6 km/h (3 Bft)
08.10.2014 18:18 16,1 C 14,4 C 95 % 1001,7 hPa 0,0 l/m 2 min 0 min 46 W/m 14,6 km/h (3 Bft)
08.10.2014 18:20 16,1 C 14,4 C 95 % 1001,7 hPa 0,0 l/m 2 min 0 min 46 W/m 10,5 km/h (2 Bft)
08.10.2014 18:22 16,1 C 14,4 C 95 % 1001,7 hPa 0,0 l/m 2 min 0 min 39 W/m 12,6 km/h (3 Bft)
08.10.2014 18:24 16,1 C 14,4 C 95 % 1001,6 hPa 0,0 l/m 2 min 0 min 33 W/m 14,6 km/h (3 Bft)
08.10.2014 18:26 16,1 C 14,4 C 95 % 1001,6 hPa 0,0 l/m 2 min 0 min 33 W/m 12,6 km/h (3 Bft)
08.10.2014 18:28 16,1 C 14,4 C 95 % 1001,6 hPa 0,0 l/m 2 min 0 min 36 W/m 14,6 km/h (3 Bft)
08.10.2014 18:30 16,1 C 14,4 C 95 % 1001,7 hPa 0,0 l/m 2 min 0 min 35 W/m 12,6 km/h (3 Bft)
08.10.2014 18:32 16,1 C 14,4 C 95 % 1001,7 hPa 0,0 l/m 2 min 0 min 32 W/m 18,8 km/h (3 Bft)
08.10.2014 18:34 16,1 C 14,4 C 95 % 1001,7 hPa 0,0 l/m 2 min 0 min 28 W/m 8,4 km/h (2 Bft)
08.10.2014 18:36 16,1 C 13,9 C 95 % 1001,8 hPa 0,0 l/m 2 min 0 min 24 W/m 12,6 km/h (3 Bft)
08.10.2014 18:38 16,1 C 13,9 C 95 % 1001,7 hPa 0,0 l/m 2 min 0 min 20 W/m 16,7 km/h (3 Bft)
08.10.2014 18:40 16,1 C 13,9 C 95 % 1001,7 hPa 0,0 l/m 2 min 0 min 18 W/m 14,6 km/h (3 Bft)
08.10.2014 18:42 16,1 C 13,9 C 95 % 1001,7 hPa 0,0 l/m 2 min 0 min 14 W/m 18,8 km/h (3 Bft)
08.10.2014 18:44 16,1 C 13,9 C 95 % 1001,7 hPa 0,0 l/m 0 min 0 min 12 W/m 10,5 km/h (2 Bft)
08.10.2014 18:46 16,1 C 13,9 C 95 % 1001,7 hPa 0,0 l/m 0 min 0 min 11 W/m 8,4 km/h (2 Bft)
08.10.2014 18:48 16,1 C 13,9 C 94 % 1001,6 hPa 0,0 l/m 0 min 0 min 9 W/m 20,9 km/h (4 Bft)
08.10.2014 18:50 16,1 C 13,9 C 94 % 1001,6 hPa 0,0 l/m 0 min 0 min 8 W/m 12,6 km/h (3 Bft)
08.10.2014 18:52 16,1 C 13,9 C 94 % 1001,6 hPa 0,0 l/m 0 min 0 min 6 W/m 20,9 km/h (4 Bft)
08.10.2014 18:54 16,1 C 13,9 C 94 % 1001,6 hPa 0,0 l/m 0 min 0 min 5 W/m 29,3 km/h (5 Bft)
08.10.2014 18:56 16,0 C 13,9 C 94 % 1001,6 hPa 0,0 l/m 0 min 0 min 2 W/m 16,7 km/h (3 Bft)
08.10.2014 18:58 16,0 C 13,9 C 94 % 1001,6 hPa 0,0 l/m 0 min 0 min 0 W/m 16,7 km/h (3 Bft)
08.10.2014 19:00 16,0 C 13,9 C 94 % 1001,6 hPa 0,0 l/m 0 min 0 min 0 W/m 18,8 km/h (3 Bft)
08.10.2014 19:02 15,9 C 13,9 C 94 % 1001,6 hPa 0,0 l/m 0 min 0 min 0 W/m 12,6 km/h (3 Bft)
08.10.2014 19:04 15,9 C 13,9 C 94 % 1001,7 hPa 0,0 l/m 0 min 0 min 0 W/m 18,8 km/h (3 Bft)
08.10.2014 19:06 15,9 C 13,9 C 94 % 1001,7 hPa 0,0 l/m 0 min 0 min 0 W/m 16,7 km/h (3 Bft)
08.10.2014 19:08 15,9 C 13,9 C 94 % 1001,7 hPa 0,0 l/m 0 min 0 min 0 W/m 16,7 km/h (3 Bft)
08.10.2014 19:10 15,9 C 13,9 C 94 % 1001,8 hPa 0,0 l/m 0 min 0 min 0 W/m 12,6 km/h (3 Bft)
08.10.2014 19:12 15,9 C 13,9 C 94 % 1001,9 hPa 0,0 l/m 0 min 0 min 0 W/m 16,7 km/h (3 Bft)
08.10.2014 19:14 15,9 C 13,9 C 94 % 1001,9 hPa 0,0 l/m 0 min 0 min 0 W/m 20,9 km/h (4 Bft)
08.10.2014 19:16 15,8 C 13,9 C 94 % 1001,8 hPa 0,0 l/m 0 min 0 min 0 W/m 16,7 km/h (3 Bft)
08.10.2014 19:18 15,8 C 13,9 C 94 % 1001,9 hPa 0,0 l/m 0 min 0 min 0 W/m 14,6 km/h (3 Bft)
08.10.2014 19:20 15,8 C 13,9 C 94 % 1001,8 hPa 0,0 l/m 0 min 0 min 0 W/m 16,7 km/h (3 Bft)
08.10.2014 19:22 15,8 C 13,9 C 94 % 1001,8 hPa 0,0 l/m 0 min 0 min 0 W/m 18,8 km/h (3 Bft)
08.10.2014 19:24 15,8 C 13,9 C 93 % 1001,8 hPa 0,0 l/m 0 min 0 min 0 W/m 18,8 km/h (3 Bft)
08.10.2014 19:26 15,8 C 13,9 C 93 % 1001,8 hPa 0,0 l/m 0 min 0 min 0 W/m 16,7 km/h (3 Bft)
08.10.2014 19:28 15,8 C 13,9 C 93 % 1001,8 hPa 0,0 l/m 0 min 0 min 0 W/m 14,6 km/h (3 Bft)
08.10.2014 19:30 15,8 C 13,9 C 93 % 1001,8 hPa 0,0 l/m 0 min 0 min 0 W/m 16,7 km/h (3 Bft)
08.10.2014 19:32 15,7 C 13,9 C 93 % 1001,8 hPa 0,0 l/m 0 min 0 min 0 W/m 18,8 km/h (3 Bft)
08.10.2014 19:34 15,7 C 13,9 C 93 % 1001,8 hPa 0,0 l/m 0 min 0 min 0 W/m 20,9 km/h (4 Bft)
08.10.2014 19:36 15,7 C 13,9 C 93 % 1001,7 hPa 0,0 l/m 0 min 0 min 0 W/m 14,6 km/h (3 Bft)
08.10.2014 19:38 15,7 C 13,3 C 93 % 1001,8 hPa 0,0 l/m 0 min 0 min 0 W/m 12,6 km/h (3 Bft)
08.10.2014 19:40 15,7 C 13,3 C 93 % 1001,8 hPa 0,0 l/m 0 min 0 min 0 W/m 14,6 km/h (3 Bft)
08.10.2014 19:42 15,7 C 13,3 C 93 % 1001,8 hPa 0,0 l/m 0 min 0 min 0 W/m 14,6 km/h (3 Bft)
08.10.2014 19:44 15,7 C 13,3 C 93 % 1001,8 hPa 0,0 l/m 0 min 0 min 0 W/m 12,6 km/h (3 Bft)
08.10.2014 19:46 15,7 C 13,3 C 93 % 1001,9 hPa 0,0 l/m 0 min 0 min 0 W/m 14,6 km/h (3 Bft)
08.10.2014 19:48 15,6 C 13,3 C 93 % 1001,9 hPa 0,0 l/m 0 min 0 min 0 W/m 16,7 km/h (3 Bft)
08.10.2014 19:50 15,6 C 13,3 C 93 % 1001,9 hPa 0,0 l/m 0 min 0 min 0 W/m 14,6 km/h (3 Bft)
08.10.2014 19:52 15,6 C 13,3 C 93 % 1001,9 hPa 0,0 l/m 0 min 0 min 0 W/m 16,7 km/h (3 Bft)
08.10.2014 19:54 15,6 C 13,3 C 93 % 1001,9 hPa 0,0 l/m 0 min 0 min 0 W/m 16,7 km/h (3 Bft)
08.10.2014 19:56 15,6 C 13,3 C 93 % 1001,9 hPa 0,0 l/m 0 min 0 min 0 W/m 18,8 km/h (3 Bft)
08.10.2014 19:58 15,6 C 13,3 C 93 % 1001,9 hPa 0,0 l/m 0 min 0 min 0 W/m 14,6 km/h (3 Bft)
08.10.2014 20:00 15,6 C 13,3 C 93 % 1001,9 hPa 0,0 l/m 0 min 0 min 0 W/m 16,7 km/h (3 Bft)
08.10.2014 20:02 15,5 C 13,3 C 93 % 1001,9 hPa 0,0 l/m 0 min 0 min 0 W/m 14,6 km/h (3 Bft)
08.10.2014 20:04 15,5 C 13,3 C 94 % 1002,0 hPa 0,0 l/m 0 min 0 min 0 W/m 14,6 km/h (3 Bft)
08.10.2014 20:06 15,5 C 13,3 C 94 % 1001,9 hPa 0,0 l/m 0 min 0 min 0 W/m 16,7 km/h (3 Bft)
08.10.2014 20:08 15,5 C 13,3 C 94 % 1001,9 hPa 0,0 l/m 0 min 0 min 0 W/m 18,8 km/h (3 Bft)
08.10.2014 20:10 15,4 C 13,3 C 94 % 1001,8 hPa 0,0 l/m 0 min 0 min 0 W/m 16,7 km/h (3 Bft)
08.10.2014 20:12 15,4 C 13,3 C 94 % 1001,9 hPa 0,0 l/m 0 min 0 min 0 W/m 16,7 km/h (3 Bft)
08.10.2014 20:14 15,4 C 13,3 C 94 % 1001,9 hPa 0,0 l/m 0 min 0 min 0 W/m 14,6 km/h (3 Bft)
08.10.2014 20:16 15,4 C 13,3 C 94 % 1002,0 hPa 0,0 l/m 0 min 0 min 0 W/m 16,7 km/h (3 Bft)
08.10.2014 20:18 15,4 C 13,3 C 93 % 1002,0 hPa 0,0 l/m 0 min 0 min 0 W/m 18,8 km/h (3 Bft)
08.10.2014 20:20 15,4 C 13,3 C 93 % 1002,1 hPa 0,0 l/m 0 min 0 min 0 W/m 14,6 km/h (3 Bft)
08.10.2014 20:22 15,4 C 13,3 C 93 % 1002,2 hPa 0,0 l/m 0 min 0 min 0 W/m 16,7 km/h (3 Bft)
08.10.2014 20:24 15,4 C 13,3 C 93 % 1002,2 hPa 0,0 l/m 0 min 0 min 0 W/m 18,8 km/h (3 Bft)
08.10.2014 20:26 15,3 C 13,3 C 94 % 1002,2 hPa 0,0 l/m 0 min 0 min 0 W/m 14,6 km/h (3 Bft)
08.10.2014 20:28 15,3 C 13,3 C 94 % 1002,1 hPa 0,0 l/m 0 min 0 min 0 W/m 25,1 km/h (4 Bft)
08.10.2014 20:30 15,3 C 13,3 C 94 % 1002,1 hPa 0,0 l/m 0 min 0 min 0 W/m 16,7 km/h (3 Bft)
08.10.2014 20:32 15,3 C 13,3 C 94 % 1002,2 hPa 0,0 l/m 0 min 0 min 0 W/m 16,7 km/h (3 Bft)
08.10.2014 20:34 15,3 C 13,3 C 94 % 1002,3 hPa 0,0 l/m 0 min 0 min 0 W/m 18,8 km/h (3 Bft)
08.10.2014 20:36 15,3 C 13,3 C 94 % 1002,2 hPa 0,0 l/m 0 min 0 min 0 W/m 18,8 km/h (3 Bft)
08.10.2014 20:38 15,3 C 13,3 C 94 % 1002,2 hPa 0,0 l/m 0 min 0 min 0 W/m 14,6 km/h (3 Bft)
08.10.2014 20:40 15,3 C 13,3 C 94 % 1002,2 hPa 0,0 l/m 0 min 0 min 0 W/m 16,7 km/h (3 Bft)
08.10.2014 20:42 15,3 C 13,3 C 94 % 1002,2 hPa 0,0 l/m 0 min 0 min 0 W/m 18,8 km/h (3 Bft)
08.10.2014 20:44 15,3 C 13,3 C 94 % 1002,2 hPa 0,0 l/m 0 min 0 min 0 W/m 12,6 km/h (3 Bft)
08.10.2014 20:46 15,3 C 13,3 C 94 % 1002,2 hPa 0,0 l/m 0 min 0 min 0 W/m 14,6 km/h (3 Bft)
08.10.2014 20:48 15,3 C 13,3 C 94 % 1002,3 hPa 0,0 l/m 0 min 0 min 0 W/m 12,6 km/h (3 Bft)
08.10.2014 20:50 15,3 C 13,3 C 94 % 1002,2 hPa 0,0 l/m 0 min 0 min 0 W/m 12,6 km/h (3 Bft)
08.10.2014 20:52 15,3 C 13,3 C 94 % 1002,2 hPa 0,0 l/m 0 min 0 min 0 W/m 12,6 km/h (3 Bft)
08.10.2014 20:54 15,2 C 13,3 C 94 % 1002,1 hPa 0,0 l/m 0 min 0 min 0 W/m 12,6 km/h (3 Bft)
08.10.2014 20:56 15,3 C 13,3 C 94 % 1002,1 hPa 0,0 l/m 0 min 0 min 0 W/m 12,6 km/h (3 Bft)
08.10.2014 20:58 15,2 C 13,3 C 94 % 1002,0 hPa 0,0 l/m 0 min 0 min 0 W/m 16,7 km/h (3 Bft)
08.10.2014 21:00 15,2 C 13,3 C 94 % 1001,9 hPa 0,0 l/m 0 min 0 min 0 W/m 16,7 km/h (3 Bft)
08.10.2014 21:02 15,2 C 13,3 C 94 % 1002,0 hPa 0,0 l/m 0 min 0 min 0 W/m 10,5 km/h (2 Bft)
08.10.2014 21:04 15,2 C 13,3 C 94 % 1001,9 hPa 0,0 l/m 0 min 0 min 0 W/m 14,6 km/h (3 Bft)
08.10.2014 21:06 15,2 C 13,3 C 94 % 1001,9 hPa 0,0 l/m 0 min 0 min 0 W/m 18,8 km/h (3 Bft)
08.10.2014 21:08 15,2 C 13,9 C 94 % 1001,9 hPa 0,0 l/m 0 min 0 min 0 W/m 20,9 km/h (4 Bft)
08.10.2014 21:10 15,2 C 13,3 C 94 % 1002,0 hPa 0,0 l/m 0 min 0 min 0 W/m 16,7 km/h (3 Bft)
08.10.2014 21:12 15,2 C 13,3 C 94 % 1001,8 hPa 0,0 l/m 0 min 0 min 0 W/m 14,6 km/h (3 Bft)
08.10.2014 21:14 15,2 C 13,9 C 94 % 1001,9 hPa 0,0 l/m 0 min 0 min 0 W/m 18,8 km/h (3 Bft)
08.10.2014 21:16 15,2 C 13,9 C 94 % 1001,9 hPa 0,0 l/m 0 min 0 min 0 W/m 12,6 km/h (3 Bft)
08.10.2014 21:18 15,2 C 13,9 C 94 % 1001,9 hPa 0,0 l/m 0 min 0 min 0 W/m 14,6 km/h (3 Bft)
08.10.2014 21:20 15,2 C 13,9 C 94 % 1001,8 hPa 0,0 l/m 0 min 0 min 0 W/m 12,6 km/h (3 Bft)
08.10.2014 21:22 15,2 C 13,9 C 94 % 1001,8 hPa 0,0 l/m 0 min 0 min 0 W/m 20,9 km/h (4 Bft)
08.10.2014 21:24 15,3 C 13,9 C 94 % 1001,7 hPa 0,0 l/m 0 min 0 min 0 W/m 16,7 km/h (3 Bft)
08.10.2014 21:26 15,3 C 13,3 C 94 % 1001,8 hPa 0,0 l/m 0 min 0 min 0 W/m 16,7 km/h (3 Bft)
08.10.2014 21:28 15,3 C 13,3 C 94 % 1001,8 hPa 0,0 l/m 0 min 0 min 0 W/m 16,7 km/h (3 Bft)
08.10.2014 21:30 15,3 C 13,9 C 94 % 1001,7 hPa 0,0 l/m 0 min 0 min 0 W/m 20,9 km/h (4 Bft)
08.10.2014 21:32 15,3 C 13,9 C 94 % 1001,6 hPa 0,0 l/m 0 min 0 min 0 W/m 18,8 km/h (3 Bft)
08.10.2014 21:34 15,3 C 13,3 C 94 % 1001,7 hPa 0,0 l/m 0 min 0 min 0 W/m 14,6 km/h (3 Bft)
08.10.2014 21:36 15,3 C 13,3 C 94 % 1001,7 hPa 0,0 l/m 0 min 0 min 0 W/m 12,6 km/h (3 Bft)
08.10.2014 21:38 15,3 C 13,9 C 94 % 1001,6 hPa 0,0 l/m 0 min 0 min 0 W/m 14,6 km/h (3 Bft)
08.10.2014 21:40 15,3 C 13,9 C 94 % 1001,6 hPa 0,0 l/m 0 min 0 min 0 W/m 14,6 km/h (3 Bft)
08.10.2014 21:42 15,3 C 13,9 C 94 % 1001,6 hPa 0,0 l/m 0 min 0 min 0 W/m 12,6 km/h (3 Bft)
08.10.2014 21:44 15,3 C 13,9 C 94 % 1001,6 hPa 0,0 l/m 0 min 0 min 0 W/m 14,6 km/h (3 Bft)
08.10.2014 21:46 15,3 C 13,9 C 94 % 1001,7 hPa 0,0 l/m 0 min 0 min 0 W/m 16,7 km/h (3 Bft)
08.10.2014 21:48 15,3 C 13,9 C 94 % 1001,7 hPa 0,0 l/m 0 min 0 min 0 W/m 12,6 km/h (3 Bft)
08.10.2014 21:50 15,4 C 13,9 C 94 % 1001,6 hPa 0,0 l/m 0 min 0 min 0 W/m 14,6 km/h (3 Bft)
08.10.2014 21:52 15,4 C 13,9 C 94 % 1001,6 hPa 0,0 l/m 0 min 0 min 0 W/m 12,6 km/h (3 Bft)
08.10.2014 21:54 15,4 C 13,9 C 94 % 1001,6 hPa 0,0 l/m 0 min 0 min 0 W/m 14,6 km/h (3 Bft)
08.10.2014 21:56 15,4 C 13,9 C 94 % 1001,6 hPa 0,0 l/m 0 min 0 min 0 W/m 12,6 km/h (3 Bft)
08.10.2014 21:58 15,4 C 13,9 C 94 % 1001,6 hPa 0,0 l/m 0 min 0 min 0 W/m 20,9 km/h (4 Bft)
08.10.2014 22:00 15,4 C 13,9 C 94 % 1001,6 hPa 0,0 l/m 0 min 0 min 0 W/m 12,6 km/h (3 Bft)
08.10.2014 22:02 15,4 C 13,9 C 94 % 1001,6 hPa 0,0 l/m 0 min 0 min 0 W/m 16,7 km/h (3 Bft)
08.10.2014 22:04 15,4 C 13,9 C 94 % 1001,5 hPa 0,0 l/m 0 min 0 min 0 W/m 16,7 km/h (3 Bft)
08.10.2014 22:06 15,4 C 13,9 C 94 % 1001,5 hPa 0,0 l/m 0 min 0 min 0 W/m 14,6 km/h (3 Bft)
08.10.2014 22:08 15,5 C 13,9 C 94 % 1001,5 hPa 0,0 l/m 0 min 0 min 0 W/m 16,7 km/h (3 Bft)
08.10.2014 22:10 15,5 C 13,9 C 94 % 1001,4 hPa 0,0 l/m 0 min 0 min 0 W/m 14,6 km/h (3 Bft)
08.10.2014 22:12 15,5 C 13,9 C 94 % 1001,2 hPa 0,0 l/m 0 min 0 min 0 W/m 10,5 km/h (2 Bft)
08.10.2014 22:14 15,5 C 13,9 C 94 % 1001,2 hPa 0,0 l/m 0 min 0 min 0 W/m 12,6 km/h (3 Bft)
08.10.2014 22:16 15,6 C 13,9 C 94 % 1001,2 hPa 0,0 l/m 0 min 2 min 0 W/m 12,6 km/h (3 Bft)
08.10.2014 22:18 15,6 C 13,9 C 94 % 1001,2 hPa 0,0 l/m 0 min 0 min 0 W/m 16,7 km/h (3 Bft)
08.10.2014 22:20 15,6 C 13,9 C 94 % 1001,2 hPa 0,0 l/m 0 min 2 min 0 W/m 14,6 km/h (3 Bft)
08.10.2014 22:22 15,6 C 13,9 C 94 % 1001,2 hPa 0,0 l/m 0 min 2 min 0 W/m 14,6 km/h (3 Bft)
08.10.2014 22:24 15,6 C 13,3 C 94 % 1001,1 hPa 0,0 l/m 0 min 2 min 0 W/m 10,5 km/h (2 Bft)
08.10.2014 22:26 15,6 C 13,3 C 94 % 1001,1 hPa 0,0 l/m 0 min 2 min 0 W/m 10,5 km/h (2 Bft)
08.10.2014 22:28 15,6 C 13,3 C 94 % 1001,0 hPa 0,2 l/m 0 min 2 min 0 W/m 14,6 km/h (3 Bft)
08.10.2014 22:30 15,6 C 13,3 C 94 % 1001,0 hPa 0,0 l/m 0 min 2 min 0 W/m 8,4 km/h (2 Bft)
08.10.2014 22:32 15,7 C 13,3 C 94 % 1001,1 hPa 0,0 l/m 0 min 2 min 0 W/m 10,5 km/h (2 Bft)
08.10.2014 22:34 15,7 C 13,3 C 94 % 1001,0 hPa 0,2 l/m 0 min 2 min 0 W/m 8,4 km/h (2 Bft)
08.10.2014 22:36 15,7 C 13,3 C 94 % 1001,0 hPa 0,0 l/m 0 min 2 min 0 W/m 8,4 km/h (2 Bft)
08.10.2014 22:38 15,7 C 13,3 C 94 % 1001,1 hPa 0,2 l/m 0 min 2 min 0 W/m 8,4 km/h (2 Bft)
08.10.2014 22:40 15,7 C 13,3 C 94 % 1001,1 hPa 0,0 l/m 0 min 2 min 0 W/m 10,5 km/h (2 Bft)
08.10.2014 22:42 15,7 C 13,3 C 94 % 1001,2 hPa 0,0 l/m 0 min 2 min 0 W/m 8,4 km/h (2 Bft)
08.10.2014 22:44 15,7 C 13,3 C 94 % 1001,2 hPa 0,2 l/m 0 min 2 min 0 W/m 10,5 km/h (2 Bft)
08.10.2014 22:46 15,7 C 13,3 C 94 % 1001,3 hPa 0,2 l/m 0 min 2 min 0 W/m 14,6 km/h (3 Bft)
08.10.2014 22:48 15,6 C 13,3 C 94 % 1001,3 hPa 0,0 l/m 0 min 2 min 0 W/m 10,5 km/h (2 Bft)
08.10.2014 22:50 15,6 C 13,3 C 94 % 1001,2 hPa 0,0 l/m 0 min 2 min 0 W/m 14,6 km/h (3 Bft)
08.10.2014 22:52 15,6 C 13,3 C 94 % 1001,3 hPa 0,2 l/m 0 min 2 min 0 W/m 12,6 km/h (3 Bft)
08.10.2014 22:54 15,6 C 13,3 C 94 % 1001,2 hPa 0,2 l/m 0 min 2 min 0 W/m 18,8 km/h (3 Bft)
08.10.2014 22:56 15,6 C 13,3 C 94 % 1001,2 hPa 0,0 l/m 0 min 2 min 0 W/m 12,6 km/h (3 Bft)
08.10.2014 22:58 15,5 C 13,3 C 94 % 1001,2 hPa 0,2 l/m 0 min 2 min 0 W/m 14,6 km/h (3 Bft)
08.10.2014 23:00 15,5 C 13,3 C 95 % 1001,2 hPa 0,0 l/m 0 min 2 min 0 W/m 10,5 km/h (2 Bft)
08.10.2014 23:02 15,5 C 13,3 C 94 % 1001,4 hPa 0,2 l/m 0 min 2 min 0 W/m 16,7 km/h (3 Bft)
08.10.2014 23:04 15,5 C 13,3 C 95 % 1001,3 hPa 0,2 l/m 0 min 2 min 0 W/m 12,6 km/h (3 Bft)
08.10.2014 23:06 15,4 C 13,3 C 95 % 1001,4 hPa 0,2 l/m 0 min 2 min 0 W/m 14,6 km/h (3 Bft)
08.10.2014 23:08 15,4 C 13,3 C 95 % 1001,4 hPa 0,0 l/m 0 min 2 min 0 W/m 18,8 km/h (3 Bft)
08.10.2014 23:10 15,4 C 13,3 C 95 % 1001,4 hPa 0,4 l/m 0 min 2 min 0 W/m 16,7 km/h (3 Bft)
08.10.2014 23:12 15,4 C 13,3 C 95 % 1001,4 hPa 0,2 l/m 0 min 2 min 0 W/m 16,7 km/h (3 Bft)
08.10.2014 23:14 15,4 C 13,3 C 95 % 1001,3 hPa 0,2 l/m 0 min 2 min 0 W/m 18,8 km/h (3 Bft)
08.10.2014 23:16 15,4 C 13,3 C 95 % 1001,4 hPa 0,4 l/m 0 min 2 min 0 W/m 16,7 km/h (3 Bft)
08.10.2014 23:18 15,4 C 13,3 C 95 % 1001,3 hPa 0,2 l/m 0 min 2 min 0 W/m 16,7 km/h (3 Bft)
08.10.2014 23:20 15,4 C 13,3 C 95 % 1001,4 hPa 0,2 l/m 0 min 2 min 0 W/m 16,7 km/h (3 Bft)
08.10.2014 23:22 15,4 C 13,9 C 96 % 1001,4 hPa 0,4 l/m 0 min 2 min 0 W/m 20,9 km/h (4 Bft)
08.10.2014 23:24 15,4 C 13,9 C 96 % 1001,5 hPa 0,0 l/m 0 min 2 min 0 W/m 14,6 km/h (3 Bft)
08.10.2014 23:26 15,4 C 13,9 C 96 % 1001,6 hPa 0,4 l/m 0 min 2 min 0 W/m 27,2 km/h (4 Bft)
08.10.2014 23:28 15,4 C 13,9 C 96 % 1001,3 hPa 0,2 l/m 0 min 2 min 0 W/m 18,8 km/h (3 Bft)
08.10.2014 23:30 15,4 C 13,9 C 96 % 1001,3 hPa 0,2 l/m 0 min 2 min 0 W/m 18,8 km/h (3 Bft)
08.10.2014 23:32 15,4 C 13,9 C 96 % 1001,2 hPa 0,0 l/m 0 min 2 min 0 W/m 18,8 km/h (3 Bft)
08.10.2014 23:34 15,5 C 13,9 C 96 % 1001,1 hPa 0,2 l/m 0 min 2 min 0 W/m 20,9 km/h (4 Bft)
08.10.2014 23:36 15,5 C 13,9 C 96 % 1001,0 hPa 0,2 l/m 0 min 2 min 0 W/m 25,1 km/h (4 Bft)
08.10.2014 23:38 15,6 C 13,9 C 96 % 1001,0 hPa 0,2 l/m 0 min 2 min 0 W/m 23,0 km/h (4 Bft)
08.10.2014 23:40 15,6 C 13,9 C 96 % 1001,0 hPa 0,0 l/m 0 min 2 min 0 W/m 16,7 km/h (3 Bft)
08.10.2014 23:42 15,6 C 13,9 C 96 % 1001,3 hPa 0,2 l/m 0 min 2 min 0 W/m 18,8 km/h (3 Bft)
08.10.2014 23:44 15,6 C 13,9 C 96 % 1001,1 hPa 0,0 l/m 0 min 2 min 0 W/m 20,9 km/h (4 Bft)
08.10.2014 23:46 15,6 C 13,9 C 97 % 1001,0 hPa 0,2 l/m 0 min 2 min 0 W/m 23,0 km/h (4 Bft)
08.10.2014 23:48 15,6 C 13,9 C 97 % 1001,1 hPa 0,0 l/m 0 min 2 min 0 W/m 14,6 km/h (3 Bft)
08.10.2014 23:50 15,6 C 13,9 C 97 % 1001,0 hPa 0,2 l/m 0 min 2 min 0 W/m 27,2 km/h (4 Bft)
08.10.2014 23:52 15,6 C 13,9 C 97 % 1001,0 hPa 0,0 l/m 0 min 2 min 0 W/m 18,8 km/h (3 Bft)
08.10.2014 23:54 15,7 C 13,9 C 97 % 1001,0 hPa 0,0 l/m 0 min 2 min 0 W/m 14,6 km/h (3 Bft)
08.10.2014 23:56 15,6 C 13,9 C 97 % 1001,0 hPa 0,0 l/m 0 min 2 min 0 W/m 23,0 km/h (4 Bft)
08.10.2014 23:58 15,7 C 13,9 C 97 % 1001,1 hPa 0,0 l/m 0 min 2 min 0 W/m 27,2 km/h (4 Bft)
_ Min-Zeit 01:42 00:56 19:24 22:28 - - - - 08:34
Minimum _ 9,1 C 7,8 C 93 % 1001,0 hPa - - - - 6,3 km/h (2 Bft)
_ Max-Zeit 17:32 16:14 16:16 03:04 23:10 15:06 08:50 16:06 15:20
Maximum _ 16,1 C 14,4 C 99 % 1008,9 hPa 0,4 l/m 2 min 2 min 463 W/m 35,6 km/h
O (5 Bft)
Durchschnitt _ 12,6 C 11,2 C 95 % 1005,0 hPa #11,6 l/m #2:30 h #5:51 h 93 W/m 15,8 km/h (3 Bft)
© 2014 W. Hausmann